<?xml version="1.0" encoding="UTF-8" standalone="no" ?>
<gpx xmlns="http://www.topografix.com/GPX/1/1" xmlns:xsi="http://www.w3.org/2001/XMLSchema-instance" xsi:schemaLocation="http://www.topografix.com/GPX/1/1 http://www.topografix.com/GPX/1/1/gpx.xsd" version="1.1" creator="VisuGPX - https://www.visugpx.com">
  <metadata>
    <name>Tayrac 9.2 km</name>
  </metadata>
  <trk>
    <name><![CDATA[Tayrac]]></name>
    <extensions>
      <line xmlns="http://www.topografix.com/GPX/gpx_style/0/2">
        <color>0000FF</color>
        <width>4</width>
      </line>
    </extensions>
    <trkseg>
      <trkpt lat="44.19716" lon="0.84301">
        <ele>75.6</ele>
        <time>2025-05-03T07:01:27.000Z</time>
      </trkpt>
      <trkpt lat="44.19715" lon="0.84315">
        <ele>75.6</ele>
        <time>2025-05-03T07:02:03.000Z</time>
      </trkpt>
      <trkpt lat="44.19712" lon="0.84328">
        <ele>75.6</ele>
        <time>2025-05-03T07:02:09.000Z</time>
      </trkpt>
      <trkpt lat="44.19711" lon="0.84342">
        <ele>75.8</ele>
        <time>2025-05-03T07:02:16.000Z</time>
      </trkpt>
      <trkpt lat="44.19708" lon="0.84355">
        <ele>75.9</ele>
        <time>2025-05-03T07:02:25.000Z</time>
      </trkpt>
      <trkpt lat="44.19705" lon="0.84368">
        <ele>76</ele>
        <time>2025-05-03T07:02:33.000Z</time>
      </trkpt>
      <trkpt lat="44.19701" lon="0.8438">
        <ele>75.8</ele>
        <time>2025-05-03T07:02:41.000Z</time>
      </trkpt>
      <trkpt lat="44.19694" lon="0.84387">
        <ele>75</ele>
        <time>2025-05-03T07:02:49.000Z</time>
      </trkpt>
      <trkpt lat="44.19685" lon="0.84392">
        <ele>75.1</ele>
        <time>2025-05-03T07:02:56.000Z</time>
      </trkpt>
      <trkpt lat="44.19678" lon="0.84401">
        <ele>75.4</ele>
        <time>2025-05-03T07:03:05.000Z</time>
      </trkpt>
      <trkpt lat="44.19668" lon="0.8441">
        <ele>75.1</ele>
        <time>2025-05-03T07:03:12.000Z</time>
      </trkpt>
      <trkpt lat="44.19669" lon="0.84428">
        <ele>75.6</ele>
        <time>2025-05-03T07:03:20.000Z</time>
      </trkpt>
      <trkpt lat="44.19669" lon="0.84442">
        <ele>76</ele>
        <time>2025-05-03T07:03:28.000Z</time>
      </trkpt>
      <trkpt lat="44.19671" lon="0.84455">
        <ele>76.4</ele>
        <time>2025-05-03T07:03:38.000Z</time>
      </trkpt>
      <trkpt lat="44.1967" lon="0.84467">
        <ele>76.3</ele>
        <time>2025-05-03T07:03:47.000Z</time>
      </trkpt>
      <trkpt lat="44.19668" lon="0.84481">
        <ele>76.5</ele>
        <time>2025-05-03T07:03:55.000Z</time>
      </trkpt>
      <trkpt lat="44.19668" lon="0.84495">
        <ele>77</ele>
        <time>2025-05-03T07:04:04.000Z</time>
      </trkpt>
      <trkpt lat="44.19669" lon="0.8451">
        <ele>77.6</ele>
        <time>2025-05-03T07:04:15.000Z</time>
      </trkpt>
      <trkpt lat="44.19669" lon="0.84523">
        <ele>78.1</ele>
        <time>2025-05-03T07:04:22.000Z</time>
      </trkpt>
      <trkpt lat="44.19668" lon="0.84536">
        <ele>78.5</ele>
        <time>2025-05-03T07:04:33.000Z</time>
      </trkpt>
      <trkpt lat="44.19668" lon="0.84549">
        <ele>78.9</ele>
        <time>2025-05-03T07:04:41.000Z</time>
      </trkpt>
      <trkpt lat="44.19668" lon="0.84562">
        <ele>79.4</ele>
        <time>2025-05-03T07:04:49.000Z</time>
      </trkpt>
      <trkpt lat="44.19668" lon="0.84576">
        <ele>79.8</ele>
        <time>2025-05-03T07:04:58.000Z</time>
      </trkpt>
      <trkpt lat="44.19667" lon="0.84591">
        <ele>80.4</ele>
        <time>2025-05-03T07:05:10.000Z</time>
      </trkpt>
      <trkpt lat="44.19668" lon="0.84606">
        <ele>81</ele>
        <time>2025-05-03T07:05:20.000Z</time>
      </trkpt>
      <trkpt lat="44.19675" lon="0.84614">
        <ele>82</ele>
        <time>2025-05-03T07:05:34.000Z</time>
      </trkpt>
      <trkpt lat="44.19685" lon="0.84618">
        <ele>83.2</ele>
        <time>2025-05-03T07:05:44.000Z</time>
      </trkpt>
      <trkpt lat="44.19693" lon="0.84622">
        <ele>84.3</ele>
        <time>2025-05-03T07:05:54.000Z</time>
      </trkpt>
      <trkpt lat="44.19703" lon="0.84626">
        <ele>85.9</ele>
        <time>2025-05-03T07:06:06.000Z</time>
      </trkpt>
      <trkpt lat="44.19713" lon="0.84629">
        <ele>87.7</ele>
        <time>2025-05-03T07:06:16.000Z</time>
      </trkpt>
      <trkpt lat="44.19722" lon="0.84632">
        <ele>89.5</ele>
        <time>2025-05-03T07:06:28.000Z</time>
      </trkpt>
      <trkpt lat="44.19732" lon="0.84634">
        <ele>91.2</ele>
        <time>2025-05-03T07:06:38.000Z</time>
      </trkpt>
      <trkpt lat="44.19741" lon="0.84639">
        <ele>92.6</ele>
        <time>2025-05-03T07:06:50.000Z</time>
      </trkpt>
      <trkpt lat="44.1975" lon="0.84643">
        <ele>94.1</ele>
        <time>2025-05-03T07:07:00.000Z</time>
      </trkpt>
      <trkpt lat="44.19758" lon="0.84648">
        <ele>96</ele>
        <time>2025-05-03T07:07:11.000Z</time>
      </trkpt>
      <trkpt lat="44.19768" lon="0.84651">
        <ele>98</ele>
        <time>2025-05-03T07:07:23.000Z</time>
      </trkpt>
      <trkpt lat="44.19777" lon="0.84653">
        <ele>99.9</ele>
        <time>2025-05-03T07:07:35.000Z</time>
      </trkpt>
      <trkpt lat="44.19786" lon="0.84657">
        <ele>101.8</ele>
        <time>2025-05-03T07:07:47.000Z</time>
      </trkpt>
      <trkpt lat="44.19795" lon="0.8466">
        <ele>103.8</ele>
        <time>2025-05-03T07:07:57.000Z</time>
      </trkpt>
      <trkpt lat="44.19805" lon="0.84664">
        <ele>105.8</ele>
        <time>2025-05-03T07:08:11.000Z</time>
      </trkpt>
      <trkpt lat="44.19814" lon="0.84667">
        <ele>107.7</ele>
        <time>2025-05-03T07:08:21.000Z</time>
      </trkpt>
      <trkpt lat="44.19823" lon="0.8467">
        <ele>109.5</ele>
        <time>2025-05-03T07:08:33.000Z</time>
      </trkpt>
      <trkpt lat="44.19832" lon="0.84675">
        <ele>111.1</ele>
        <time>2025-05-03T07:08:45.000Z</time>
      </trkpt>
      <trkpt lat="44.19841" lon="0.84678">
        <ele>112.6</ele>
        <time>2025-05-03T07:08:59.000Z</time>
      </trkpt>
      <trkpt lat="44.1985" lon="0.84681">
        <ele>114.2</ele>
        <time>2025-05-03T07:09:09.000Z</time>
      </trkpt>
      <trkpt lat="44.19858" lon="0.84683">
        <ele>115.6</ele>
        <time>2025-05-03T07:09:17.000Z</time>
      </trkpt>
      <trkpt lat="44.19867" lon="0.84688">
        <ele>116.4</ele>
        <time>2025-05-03T07:09:27.000Z</time>
      </trkpt>
      <trkpt lat="44.19876" lon="0.84691">
        <ele>117.3</ele>
        <time>2025-05-03T07:09:41.000Z</time>
      </trkpt>
      <trkpt lat="44.19885" lon="0.84696">
        <ele>118.5</ele>
        <time>2025-05-03T07:10:21.000Z</time>
      </trkpt>
      <trkpt lat="44.19892" lon="0.84705">
        <ele>119.3</ele>
        <time>2025-05-03T07:10:35.000Z</time>
      </trkpt>
      <trkpt lat="44.19895" lon="0.84716">
        <ele>119.9</ele>
        <time>2025-05-03T07:12:15.000Z</time>
      </trkpt>
      <trkpt lat="44.19896" lon="0.84731">
        <ele>120.7</ele>
        <time>2025-05-03T07:12:34.000Z</time>
      </trkpt>
      <trkpt lat="44.19893" lon="0.84744">
        <ele>121.2</ele>
        <time>2025-05-03T07:12:46.000Z</time>
      </trkpt>
      <trkpt lat="44.19891" lon="0.84757">
        <ele>122.3</ele>
        <time>2025-05-03T07:12:58.000Z</time>
      </trkpt>
      <trkpt lat="44.1989" lon="0.8477">
        <ele>124</ele>
        <time>2025-05-03T07:13:10.000Z</time>
      </trkpt>
      <trkpt lat="44.19891" lon="0.84783">
        <ele>125.7</ele>
        <time>2025-05-03T07:13:22.000Z</time>
      </trkpt>
      <trkpt lat="44.19897" lon="0.84793">
        <ele>127.2</ele>
        <time>2025-05-03T07:13:36.000Z</time>
      </trkpt>
      <trkpt lat="44.19903" lon="0.84804">
        <ele>128.3</ele>
        <time>2025-05-03T07:13:45.000Z</time>
      </trkpt>
      <trkpt lat="44.19908" lon="0.84817">
        <ele>128.6</ele>
        <time>2025-05-03T07:13:56.000Z</time>
      </trkpt>
      <trkpt lat="44.19911" lon="0.84829">
        <ele>128.5</ele>
        <time>2025-05-03T07:14:04.000Z</time>
      </trkpt>
      <trkpt lat="44.19913" lon="0.84841">
        <ele>128.5</ele>
        <time>2025-05-03T07:14:12.000Z</time>
      </trkpt>
      <trkpt lat="44.19913" lon="0.84855">
        <ele>128.7</ele>
        <time>2025-05-03T07:14:22.000Z</time>
      </trkpt>
      <trkpt lat="44.19914" lon="0.84868">
        <ele>128.7</ele>
        <time>2025-05-03T07:14:32.000Z</time>
      </trkpt>
      <trkpt lat="44.19915" lon="0.84881">
        <ele>128.4</ele>
        <time>2025-05-03T07:14:40.000Z</time>
      </trkpt>
      <trkpt lat="44.19914" lon="0.84894">
        <ele>128.4</ele>
        <time>2025-05-03T07:14:48.000Z</time>
      </trkpt>
      <trkpt lat="44.19913" lon="0.84908">
        <ele>128.8</ele>
        <time>2025-05-03T07:15:00.000Z</time>
      </trkpt>
      <trkpt lat="44.19913" lon="0.84922">
        <ele>129.1</ele>
        <time>2025-05-03T07:15:08.000Z</time>
      </trkpt>
      <trkpt lat="44.19912" lon="0.84935">
        <ele>129.6</ele>
        <time>2025-05-03T07:15:16.000Z</time>
      </trkpt>
      <trkpt lat="44.19911" lon="0.84947">
        <ele>130.3</ele>
        <time>2025-05-03T07:15:24.000Z</time>
      </trkpt>
      <trkpt lat="44.19911" lon="0.8496">
        <ele>130.6</ele>
        <time>2025-05-03T07:15:34.000Z</time>
      </trkpt>
      <trkpt lat="44.1991" lon="0.84972">
        <ele>131</ele>
        <time>2025-05-03T07:15:42.000Z</time>
      </trkpt>
      <trkpt lat="44.19908" lon="0.84986">
        <ele>131.1</ele>
        <time>2025-05-03T07:15:54.000Z</time>
      </trkpt>
      <trkpt lat="44.19906" lon="0.84998">
        <ele>131.2</ele>
        <time>2025-05-03T07:16:08.000Z</time>
      </trkpt>
      <trkpt lat="44.19911" lon="0.8501">
        <ele>130.2</ele>
        <time>2025-05-03T07:17:08.000Z</time>
      </trkpt>
      <trkpt lat="44.19917" lon="0.85022">
        <ele>129.2</ele>
        <time>2025-05-03T07:17:42.000Z</time>
      </trkpt>
      <trkpt lat="44.19922" lon="0.85034">
        <ele>128.1</ele>
        <time>2025-05-03T07:17:50.000Z</time>
      </trkpt>
      <trkpt lat="44.19928" lon="0.85043">
        <ele>126.8</ele>
        <time>2025-05-03T07:18:00.000Z</time>
      </trkpt>
      <trkpt lat="44.19932" lon="0.85055">
        <ele>125.8</ele>
        <time>2025-05-03T07:18:10.000Z</time>
      </trkpt>
      <trkpt lat="44.19939" lon="0.85064">
        <ele>125</ele>
        <time>2025-05-03T07:18:18.000Z</time>
      </trkpt>
      <trkpt lat="44.19946" lon="0.85074">
        <ele>124.5</ele>
        <time>2025-05-03T07:18:26.000Z</time>
      </trkpt>
      <trkpt lat="44.19953" lon="0.85084">
        <ele>124</ele>
        <time>2025-05-03T07:18:34.000Z</time>
      </trkpt>
      <trkpt lat="44.19962" lon="0.85092">
        <ele>123.4</ele>
        <time>2025-05-03T07:18:44.000Z</time>
      </trkpt>
      <trkpt lat="44.19967" lon="0.85103">
        <ele>123.6</ele>
        <time>2025-05-03T07:18:50.000Z</time>
      </trkpt>
      <trkpt lat="44.19974" lon="0.85113">
        <ele>124</ele>
        <time>2025-05-03T07:18:58.000Z</time>
      </trkpt>
      <trkpt lat="44.1998" lon="0.85122">
        <ele>123.8</ele>
        <time>2025-05-03T07:19:06.000Z</time>
      </trkpt>
      <trkpt lat="44.19986" lon="0.85132">
        <ele>123.9</ele>
        <time>2025-05-03T07:19:14.000Z</time>
      </trkpt>
      <trkpt lat="44.19992" lon="0.85142">
        <ele>124</ele>
        <time>2025-05-03T07:19:22.000Z</time>
      </trkpt>
      <trkpt lat="44.19999" lon="0.85151">
        <ele>124.4</ele>
        <time>2025-05-03T07:19:30.000Z</time>
      </trkpt>
      <trkpt lat="44.20005" lon="0.85161">
        <ele>124.8</ele>
        <time>2025-05-03T07:19:39.000Z</time>
      </trkpt>
      <trkpt lat="44.20012" lon="0.8517">
        <ele>125.1</ele>
        <time>2025-05-03T07:19:47.000Z</time>
      </trkpt>
      <trkpt lat="44.20019" lon="0.85179">
        <ele>125.3</ele>
        <time>2025-05-03T07:19:55.000Z</time>
      </trkpt>
      <trkpt lat="44.20025" lon="0.85189">
        <ele>125.7</ele>
        <time>2025-05-03T07:20:03.000Z</time>
      </trkpt>
      <trkpt lat="44.20031" lon="0.85198">
        <ele>126.3</ele>
        <time>2025-05-03T07:20:11.000Z</time>
      </trkpt>
      <trkpt lat="44.20039" lon="0.85207">
        <ele>126.8</ele>
        <time>2025-05-03T07:20:19.000Z</time>
      </trkpt>
      <trkpt lat="44.20047" lon="0.85216">
        <ele>127.4</ele>
        <time>2025-05-03T07:20:27.000Z</time>
      </trkpt>
      <trkpt lat="44.20055" lon="0.85224">
        <ele>128</ele>
        <time>2025-05-03T07:20:37.000Z</time>
      </trkpt>
      <trkpt lat="44.20064" lon="0.85231">
        <ele>128.4</ele>
        <time>2025-05-03T07:20:47.000Z</time>
      </trkpt>
      <trkpt lat="44.20072" lon="0.85236">
        <ele>128.9</ele>
        <time>2025-05-03T07:20:57.000Z</time>
      </trkpt>
      <trkpt lat="44.20081" lon="0.8524">
        <ele>129.5</ele>
        <time>2025-05-03T07:21:05.000Z</time>
      </trkpt>
      <trkpt lat="44.20091" lon="0.85244">
        <ele>130.1</ele>
        <time>2025-05-03T07:21:15.000Z</time>
      </trkpt>
      <trkpt lat="44.20101" lon="0.85249">
        <ele>130.6</ele>
        <time>2025-05-03T07:21:24.000Z</time>
      </trkpt>
      <trkpt lat="44.2011" lon="0.85254">
        <ele>130.8</ele>
        <time>2025-05-03T07:21:34.000Z</time>
      </trkpt>
      <trkpt lat="44.20119" lon="0.85257">
        <ele>131</ele>
        <time>2025-05-03T07:21:41.000Z</time>
      </trkpt>
      <trkpt lat="44.20129" lon="0.8526">
        <ele>131.3</ele>
        <time>2025-05-03T07:21:50.000Z</time>
      </trkpt>
      <trkpt lat="44.20138" lon="0.85264">
        <ele>131.5</ele>
        <time>2025-05-03T07:21:58.000Z</time>
      </trkpt>
      <trkpt lat="44.20147" lon="0.85268">
        <ele>131.5</ele>
        <time>2025-05-03T07:22:06.000Z</time>
      </trkpt>
      <trkpt lat="44.20156" lon="0.85273">
        <ele>131.7</ele>
        <time>2025-05-03T07:22:14.000Z</time>
      </trkpt>
      <trkpt lat="44.20165" lon="0.85278">
        <ele>131.9</ele>
        <time>2025-05-03T07:22:22.000Z</time>
      </trkpt>
      <trkpt lat="44.20173" lon="0.85283">
        <ele>132.2</ele>
        <time>2025-05-03T07:22:29.000Z</time>
      </trkpt>
      <trkpt lat="44.20182" lon="0.85288">
        <ele>132.5</ele>
        <time>2025-05-03T07:22:37.000Z</time>
      </trkpt>
      <trkpt lat="44.2019" lon="0.85292">
        <ele>132.8</ele>
        <time>2025-05-03T07:22:46.000Z</time>
      </trkpt>
      <trkpt lat="44.20199" lon="0.85298">
        <ele>132.6</ele>
        <time>2025-05-03T07:22:55.000Z</time>
      </trkpt>
      <trkpt lat="44.20208" lon="0.85301">
        <ele>132.7</ele>
        <time>2025-05-03T07:23:03.000Z</time>
      </trkpt>
      <trkpt lat="44.20217" lon="0.85304">
        <ele>132.8</ele>
        <time>2025-05-03T07:23:11.000Z</time>
      </trkpt>
      <trkpt lat="44.20227" lon="0.85308">
        <ele>132.9</ele>
        <time>2025-05-03T07:23:19.000Z</time>
      </trkpt>
      <trkpt lat="44.20237" lon="0.85314">
        <ele>132.7</ele>
        <time>2025-05-03T07:23:29.000Z</time>
      </trkpt>
      <trkpt lat="44.20245" lon="0.8532">
        <ele>132.5</ele>
        <time>2025-05-03T07:23:37.000Z</time>
      </trkpt>
      <trkpt lat="44.20255" lon="0.85326">
        <ele>132.5</ele>
        <time>2025-05-03T07:23:45.000Z</time>
      </trkpt>
      <trkpt lat="44.20265" lon="0.85329">
        <ele>133.2</ele>
        <time>2025-05-03T07:23:53.000Z</time>
      </trkpt>
      <trkpt lat="44.20276" lon="0.85332">
        <ele>133.9</ele>
        <time>2025-05-03T07:24:46.000Z</time>
      </trkpt>
      <trkpt lat="44.20285" lon="0.85329">
        <ele>134</ele>
        <time>2025-05-03T07:24:55.000Z</time>
      </trkpt>
      <trkpt lat="44.20295" lon="0.85327">
        <ele>134.1</ele>
        <time>2025-05-03T07:25:05.000Z</time>
      </trkpt>
      <trkpt lat="44.20305" lon="0.85325">
        <ele>134.3</ele>
        <time>2025-05-03T07:25:14.000Z</time>
      </trkpt>
      <trkpt lat="44.20315" lon="0.85322">
        <ele>135</ele>
        <time>2025-05-03T07:25:25.000Z</time>
      </trkpt>
      <trkpt lat="44.20325" lon="0.8532">
        <ele>135.8</ele>
        <time>2025-05-03T07:25:33.000Z</time>
      </trkpt>
      <trkpt lat="44.20334" lon="0.8532">
        <ele>136.5</ele>
        <time>2025-05-03T07:25:45.000Z</time>
      </trkpt>
      <trkpt lat="44.20344" lon="0.8532">
        <ele>137.3</ele>
        <time>2025-05-03T07:25:54.000Z</time>
      </trkpt>
      <trkpt lat="44.20353" lon="0.85322">
        <ele>138</ele>
        <time>2025-05-03T07:26:03.000Z</time>
      </trkpt>
      <trkpt lat="44.20361" lon="0.85325">
        <ele>138.6</ele>
        <time>2025-05-03T07:26:11.000Z</time>
      </trkpt>
      <trkpt lat="44.20371" lon="0.85328">
        <ele>139.7</ele>
        <time>2025-05-03T07:26:21.000Z</time>
      </trkpt>
      <trkpt lat="44.2038" lon="0.85334">
        <ele>140.7</ele>
        <time>2025-05-03T07:26:33.000Z</time>
      </trkpt>
      <trkpt lat="44.2039" lon="0.85337">
        <ele>142.2</ele>
        <time>2025-05-03T07:26:43.000Z</time>
      </trkpt>
      <trkpt lat="44.204" lon="0.85344">
        <ele>143.5</ele>
        <time>2025-05-03T07:26:54.000Z</time>
      </trkpt>
      <trkpt lat="44.2041" lon="0.85349">
        <ele>144.6</ele>
        <time>2025-05-03T07:27:04.000Z</time>
      </trkpt>
      <trkpt lat="44.2042" lon="0.85353">
        <ele>145.3</ele>
        <time>2025-05-03T07:27:15.000Z</time>
      </trkpt>
      <trkpt lat="44.2043" lon="0.85356">
        <ele>145.2</ele>
        <time>2025-05-03T07:27:26.000Z</time>
      </trkpt>
      <trkpt lat="44.20439" lon="0.85358">
        <ele>145.1</ele>
        <time>2025-05-03T07:27:36.000Z</time>
      </trkpt>
      <trkpt lat="44.20447" lon="0.85364">
        <ele>144.7</ele>
        <time>2025-05-03T07:27:46.000Z</time>
      </trkpt>
      <trkpt lat="44.20457" lon="0.85369">
        <ele>144.3</ele>
        <time>2025-05-03T07:27:58.000Z</time>
      </trkpt>
      <trkpt lat="44.20467" lon="0.85371">
        <ele>144.2</ele>
        <time>2025-05-03T07:28:05.000Z</time>
      </trkpt>
      <trkpt lat="44.20476" lon="0.85373">
        <ele>144.2</ele>
        <time>2025-05-03T07:28:14.000Z</time>
      </trkpt>
      <trkpt lat="44.20485" lon="0.85378">
        <ele>144.2</ele>
        <time>2025-05-03T07:28:22.000Z</time>
      </trkpt>
      <trkpt lat="44.20494" lon="0.85385">
        <ele>144.5</ele>
        <time>2025-05-03T07:28:32.000Z</time>
      </trkpt>
      <trkpt lat="44.20503" lon="0.8539">
        <ele>145.2</ele>
        <time>2025-05-03T07:28:40.000Z</time>
      </trkpt>
      <trkpt lat="44.20512" lon="0.85394">
        <ele>145.7</ele>
        <time>2025-05-03T07:28:49.000Z</time>
      </trkpt>
      <trkpt lat="44.20521" lon="0.85397">
        <ele>146.2</ele>
        <time>2025-05-03T07:28:59.000Z</time>
      </trkpt>
      <trkpt lat="44.20531" lon="0.85399">
        <ele>146.9</ele>
        <time>2025-05-03T07:29:10.000Z</time>
      </trkpt>
      <trkpt lat="44.2054" lon="0.85404">
        <ele>147.5</ele>
        <time>2025-05-03T07:29:20.000Z</time>
      </trkpt>
      <trkpt lat="44.20547" lon="0.8541">
        <ele>148.1</ele>
        <time>2025-05-03T07:30:40.000Z</time>
      </trkpt>
      <trkpt lat="44.20556" lon="0.85411">
        <ele>149</ele>
        <time>2025-05-03T07:32:01.000Z</time>
      </trkpt>
      <trkpt lat="44.20565" lon="0.85412">
        <ele>149.6</ele>
        <time>2025-05-03T07:32:28.000Z</time>
      </trkpt>
      <trkpt lat="44.20574" lon="0.8541">
        <ele>150</ele>
        <time>2025-05-03T07:33:11.000Z</time>
      </trkpt>
      <trkpt lat="44.20583" lon="0.85406">
        <ele>150.2</ele>
        <time>2025-05-03T07:33:21.000Z</time>
      </trkpt>
      <trkpt lat="44.20593" lon="0.85404">
        <ele>150.6</ele>
        <time>2025-05-03T07:33:32.000Z</time>
      </trkpt>
      <trkpt lat="44.20603" lon="0.85401">
        <ele>150.8</ele>
        <time>2025-05-03T07:33:42.000Z</time>
      </trkpt>
      <trkpt lat="44.20612" lon="0.85397">
        <ele>151</ele>
        <time>2025-05-03T07:33:53.000Z</time>
      </trkpt>
      <trkpt lat="44.20621" lon="0.85395">
        <ele>152</ele>
        <time>2025-05-03T07:34:02.000Z</time>
      </trkpt>
      <trkpt lat="44.20631" lon="0.85394">
        <ele>153.3</ele>
        <time>2025-05-03T07:34:12.000Z</time>
      </trkpt>
      <trkpt lat="44.20641" lon="0.85395">
        <ele>154.7</ele>
        <time>2025-05-03T07:34:28.000Z</time>
      </trkpt>
      <trkpt lat="44.20651" lon="0.85395">
        <ele>156.1</ele>
        <time>2025-05-03T07:34:42.000Z</time>
      </trkpt>
      <trkpt lat="44.20661" lon="0.85397">
        <ele>157.8</ele>
        <time>2025-05-03T07:34:52.000Z</time>
      </trkpt>
      <trkpt lat="44.2067" lon="0.854">
        <ele>159.2</ele>
        <time>2025-05-03T07:35:02.000Z</time>
      </trkpt>
      <trkpt lat="44.20679" lon="0.85404">
        <ele>160.2</ele>
        <time>2025-05-03T07:35:15.000Z</time>
      </trkpt>
      <trkpt lat="44.20689" lon="0.85408">
        <ele>161.2</ele>
        <time>2025-05-03T07:35:24.000Z</time>
      </trkpt>
      <trkpt lat="44.20697" lon="0.85413">
        <ele>162</ele>
        <time>2025-05-03T07:35:32.000Z</time>
      </trkpt>
      <trkpt lat="44.20705" lon="0.85418">
        <ele>162.8</ele>
        <time>2025-05-03T07:35:42.000Z</time>
      </trkpt>
      <trkpt lat="44.20714" lon="0.85422">
        <ele>163.5</ele>
        <time>2025-05-03T07:35:54.000Z</time>
      </trkpt>
      <trkpt lat="44.20723" lon="0.85425">
        <ele>164.3</ele>
        <time>2025-05-03T07:36:04.000Z</time>
      </trkpt>
      <trkpt lat="44.20733" lon="0.85427">
        <ele>164.5</ele>
        <time>2025-05-03T07:36:14.000Z</time>
      </trkpt>
      <trkpt lat="44.20743" lon="0.8543">
        <ele>164.8</ele>
        <time>2025-05-03T07:36:23.000Z</time>
      </trkpt>
      <trkpt lat="44.20753" lon="0.85434">
        <ele>165.2</ele>
        <time>2025-05-03T07:36:35.000Z</time>
      </trkpt>
      <trkpt lat="44.20762" lon="0.85434">
        <ele>165.2</ele>
        <time>2025-05-03T07:36:43.000Z</time>
      </trkpt>
      <trkpt lat="44.20772" lon="0.85432">
        <ele>165.1</ele>
        <time>2025-05-03T07:36:53.000Z</time>
      </trkpt>
      <trkpt lat="44.20781" lon="0.8543">
        <ele>165.2</ele>
        <time>2025-05-03T07:37:04.000Z</time>
      </trkpt>
      <trkpt lat="44.20791" lon="0.85427">
        <ele>165.8</ele>
        <time>2025-05-03T07:37:14.000Z</time>
      </trkpt>
      <trkpt lat="44.20801" lon="0.85425">
        <ele>166.6</ele>
        <time>2025-05-03T07:37:22.000Z</time>
      </trkpt>
      <trkpt lat="44.20809" lon="0.85425">
        <ele>167.2</ele>
        <time>2025-05-03T07:37:32.000Z</time>
      </trkpt>
      <trkpt lat="44.20818" lon="0.85424">
        <ele>167.8</ele>
        <time>2025-05-03T07:37:46.000Z</time>
      </trkpt>
      <trkpt lat="44.20827" lon="0.85421">
        <ele>168.5</ele>
        <time>2025-05-03T07:37:56.000Z</time>
      </trkpt>
      <trkpt lat="44.20836" lon="0.8542">
        <ele>168.9</ele>
        <time>2025-05-03T07:38:04.000Z</time>
      </trkpt>
      <trkpt lat="44.20846" lon="0.85419">
        <ele>168.9</ele>
        <time>2025-05-03T07:38:12.000Z</time>
      </trkpt>
      <trkpt lat="44.20855" lon="0.85418">
        <ele>169</ele>
        <time>2025-05-03T07:38:20.000Z</time>
      </trkpt>
      <trkpt lat="44.20865" lon="0.85417">
        <ele>169</ele>
        <time>2025-05-03T07:38:28.000Z</time>
      </trkpt>
      <trkpt lat="44.20876" lon="0.85417">
        <ele>169</ele>
        <time>2025-05-03T07:38:38.000Z</time>
      </trkpt>
      <trkpt lat="44.20886" lon="0.85418">
        <ele>169</ele>
        <time>2025-05-03T07:38:48.000Z</time>
      </trkpt>
      <trkpt lat="44.20896" lon="0.85418">
        <ele>169.2</ele>
        <time>2025-05-03T07:38:58.000Z</time>
      </trkpt>
      <trkpt lat="44.20906" lon="0.85417">
        <ele>169.6</ele>
        <time>2025-05-03T07:39:06.000Z</time>
      </trkpt>
      <trkpt lat="44.20915" lon="0.85418">
        <ele>169.9</ele>
        <time>2025-05-03T07:39:14.000Z</time>
      </trkpt>
      <trkpt lat="44.20925" lon="0.85421">
        <ele>170</ele>
        <time>2025-05-03T07:39:23.000Z</time>
      </trkpt>
      <trkpt lat="44.20934" lon="0.85423">
        <ele>170.2</ele>
        <time>2025-05-03T07:39:32.000Z</time>
      </trkpt>
      <trkpt lat="44.20944" lon="0.85424">
        <ele>170.5</ele>
        <time>2025-05-03T07:39:52.000Z</time>
      </trkpt>
      <trkpt lat="44.20954" lon="0.85424">
        <ele>170.9</ele>
        <time>2025-05-03T07:39:59.000Z</time>
      </trkpt>
      <trkpt lat="44.20963" lon="0.85427">
        <ele>171.2</ele>
        <time>2025-05-03T07:40:08.000Z</time>
      </trkpt>
      <trkpt lat="44.20972" lon="0.8543">
        <ele>171.5</ele>
        <time>2025-05-03T07:40:20.000Z</time>
      </trkpt>
      <trkpt lat="44.20981" lon="0.85431">
        <ele>172.1</ele>
        <time>2025-05-03T07:40:34.000Z</time>
      </trkpt>
      <trkpt lat="44.2099" lon="0.85434">
        <ele>172.7</ele>
        <time>2025-05-03T07:43:47.000Z</time>
      </trkpt>
      <trkpt lat="44.20999" lon="0.85432">
        <ele>173.4</ele>
        <time>2025-05-03T07:43:55.000Z</time>
      </trkpt>
      <trkpt lat="44.21009" lon="0.85432">
        <ele>174</ele>
        <time>2025-05-03T07:44:04.000Z</time>
      </trkpt>
      <trkpt lat="44.21019" lon="0.85433">
        <ele>174.5</ele>
        <time>2025-05-03T07:44:16.000Z</time>
      </trkpt>
      <trkpt lat="44.21028" lon="0.85433">
        <ele>175</ele>
        <time>2025-05-03T07:44:25.000Z</time>
      </trkpt>
      <trkpt lat="44.21038" lon="0.85435">
        <ele>176</ele>
        <time>2025-05-03T07:44:35.000Z</time>
      </trkpt>
      <trkpt lat="44.21047" lon="0.85437">
        <ele>176.9</ele>
        <time>2025-05-03T07:44:42.000Z</time>
      </trkpt>
      <trkpt lat="44.21055" lon="0.85441">
        <ele>177.8</ele>
        <time>2025-05-03T07:44:52.000Z</time>
      </trkpt>
      <trkpt lat="44.21065" lon="0.85443">
        <ele>178.6</ele>
        <time>2025-05-03T07:45:02.000Z</time>
      </trkpt>
      <trkpt lat="44.21075" lon="0.85443">
        <ele>179.4</ele>
        <time>2025-05-03T07:45:12.000Z</time>
      </trkpt>
      <trkpt lat="44.21085" lon="0.85443">
        <ele>180.1</ele>
        <time>2025-05-03T07:45:22.000Z</time>
      </trkpt>
      <trkpt lat="44.21094" lon="0.85446">
        <ele>180.8</ele>
        <time>2025-05-03T07:45:31.000Z</time>
      </trkpt>
      <trkpt lat="44.21104" lon="0.85445">
        <ele>181.4</ele>
        <time>2025-05-03T07:45:40.000Z</time>
      </trkpt>
      <trkpt lat="44.21112" lon="0.85442">
        <ele>182</ele>
        <time>2025-05-03T07:45:48.000Z</time>
      </trkpt>
      <trkpt lat="44.21121" lon="0.85439">
        <ele>181.8</ele>
        <time>2025-05-03T07:45:58.000Z</time>
      </trkpt>
      <trkpt lat="44.2113" lon="0.85434">
        <ele>181.8</ele>
        <time>2025-05-03T07:46:06.000Z</time>
      </trkpt>
      <trkpt lat="44.21139" lon="0.85427">
        <ele>182.2</ele>
        <time>2025-05-03T07:46:14.000Z</time>
      </trkpt>
      <trkpt lat="44.21148" lon="0.85421">
        <ele>182.3</ele>
        <time>2025-05-03T07:46:25.000Z</time>
      </trkpt>
      <trkpt lat="44.21157" lon="0.85415">
        <ele>182.4</ele>
        <time>2025-05-03T07:46:36.000Z</time>
      </trkpt>
      <trkpt lat="44.21164" lon="0.85407">
        <ele>182.7</ele>
        <time>2025-05-03T07:46:46.000Z</time>
      </trkpt>
      <trkpt lat="44.21172" lon="0.85401">
        <ele>183</ele>
        <time>2025-05-03T07:46:53.000Z</time>
      </trkpt>
      <trkpt lat="44.2118" lon="0.85397">
        <ele>183.3</ele>
        <time>2025-05-03T07:46:59.000Z</time>
      </trkpt>
      <trkpt lat="44.21189" lon="0.85392">
        <ele>183.7</ele>
        <time>2025-05-03T07:47:08.000Z</time>
      </trkpt>
      <trkpt lat="44.21197" lon="0.85386">
        <ele>184.1</ele>
        <time>2025-05-03T07:47:17.000Z</time>
      </trkpt>
      <trkpt lat="44.21206" lon="0.8538">
        <ele>184.3</ele>
        <time>2025-05-03T07:47:27.000Z</time>
      </trkpt>
      <trkpt lat="44.21215" lon="0.85373">
        <ele>184.6</ele>
        <time>2025-05-03T07:47:34.000Z</time>
      </trkpt>
      <trkpt lat="44.21223" lon="0.85366">
        <ele>184.8</ele>
        <time>2025-05-03T07:47:45.000Z</time>
      </trkpt>
      <trkpt lat="44.21231" lon="0.8536">
        <ele>184.7</ele>
        <time>2025-05-03T07:47:51.000Z</time>
      </trkpt>
      <trkpt lat="44.21239" lon="0.85354">
        <ele>184.6</ele>
        <time>2025-05-03T07:47:58.000Z</time>
      </trkpt>
      <trkpt lat="44.21246" lon="0.85346">
        <ele>184.6</ele>
        <time>2025-05-03T07:48:06.000Z</time>
      </trkpt>
      <trkpt lat="44.21254" lon="0.85339">
        <ele>184.6</ele>
        <time>2025-05-03T07:48:16.000Z</time>
      </trkpt>
      <trkpt lat="44.21262" lon="0.85329">
        <ele>184.7</ele>
        <time>2025-05-03T07:48:27.000Z</time>
      </trkpt>
      <trkpt lat="44.2127" lon="0.8532">
        <ele>184.7</ele>
        <time>2025-05-03T07:48:51.000Z</time>
      </trkpt>
      <trkpt lat="44.21278" lon="0.85312">
        <ele>184.8</ele>
        <time>2025-05-03T07:48:59.000Z</time>
      </trkpt>
      <trkpt lat="44.21285" lon="0.85303">
        <ele>184.4</ele>
        <time>2025-05-03T07:49:07.000Z</time>
      </trkpt>
      <trkpt lat="44.21292" lon="0.85294">
        <ele>184.1</ele>
        <time>2025-05-03T07:49:15.000Z</time>
      </trkpt>
      <trkpt lat="44.21299" lon="0.85284">
        <ele>184</ele>
        <time>2025-05-03T07:49:25.000Z</time>
      </trkpt>
      <trkpt lat="44.21307" lon="0.85274">
        <ele>184.1</ele>
        <time>2025-05-03T07:49:33.000Z</time>
      </trkpt>
      <trkpt lat="44.21313" lon="0.85262">
        <ele>184.1</ele>
        <time>2025-05-03T07:49:42.000Z</time>
      </trkpt>
      <trkpt lat="44.21319" lon="0.8525">
        <ele>184.5</ele>
        <time>2025-05-03T07:49:51.000Z</time>
      </trkpt>
      <trkpt lat="44.21325" lon="0.8524">
        <ele>184.5</ele>
        <time>2025-05-03T07:49:59.000Z</time>
      </trkpt>
      <trkpt lat="44.21331" lon="0.85228">
        <ele>184.8</ele>
        <time>2025-05-03T07:50:07.000Z</time>
      </trkpt>
      <trkpt lat="44.21335" lon="0.85214">
        <ele>185.4</ele>
        <time>2025-05-03T07:50:15.000Z</time>
      </trkpt>
      <trkpt lat="44.2134" lon="0.85203">
        <ele>185.7</ele>
        <time>2025-05-03T07:50:23.000Z</time>
      </trkpt>
      <trkpt lat="44.21345" lon="0.85191">
        <ele>185.9</ele>
        <time>2025-05-03T07:50:32.000Z</time>
      </trkpt>
      <trkpt lat="44.21349" lon="0.8518">
        <ele>186.2</ele>
        <time>2025-05-03T07:50:40.000Z</time>
      </trkpt>
      <trkpt lat="44.21355" lon="0.85169">
        <ele>186.8</ele>
        <time>2025-05-03T07:50:48.000Z</time>
      </trkpt>
      <trkpt lat="44.21361" lon="0.85158">
        <ele>187</ele>
        <time>2025-05-03T07:50:56.000Z</time>
      </trkpt>
      <trkpt lat="44.21367" lon="0.85149">
        <ele>186.5</ele>
        <time>2025-05-03T07:51:04.000Z</time>
      </trkpt>
      <trkpt lat="44.21375" lon="0.85141">
        <ele>186.4</ele>
        <time>2025-05-03T07:51:10.000Z</time>
      </trkpt>
      <trkpt lat="44.21383" lon="0.85133">
        <ele>186.5</ele>
        <time>2025-05-03T07:51:18.000Z</time>
      </trkpt>
      <trkpt lat="44.21392" lon="0.85126">
        <ele>186.5</ele>
        <time>2025-05-03T07:51:26.000Z</time>
      </trkpt>
      <trkpt lat="44.21399" lon="0.85116">
        <ele>186.1</ele>
        <time>2025-05-03T07:51:34.000Z</time>
      </trkpt>
      <trkpt lat="44.21407" lon="0.85108">
        <ele>185.7</ele>
        <time>2025-05-03T07:51:41.000Z</time>
      </trkpt>
      <trkpt lat="44.21413" lon="0.85099">
        <ele>185.6</ele>
        <time>2025-05-03T07:51:49.000Z</time>
      </trkpt>
      <trkpt lat="44.2142" lon="0.85088">
        <ele>185.6</ele>
        <time>2025-05-03T07:51:57.000Z</time>
      </trkpt>
      <trkpt lat="44.21427" lon="0.85079">
        <ele>184.4</ele>
        <time>2025-05-03T07:52:04.000Z</time>
      </trkpt>
      <trkpt lat="44.21434" lon="0.85069">
        <ele>183.7</ele>
        <time>2025-05-03T07:52:13.000Z</time>
      </trkpt>
      <trkpt lat="44.2144" lon="0.85058">
        <ele>184.1</ele>
        <time>2025-05-03T07:52:21.000Z</time>
      </trkpt>
      <trkpt lat="44.21446" lon="0.85048">
        <ele>184.1</ele>
        <time>2025-05-03T07:52:28.000Z</time>
      </trkpt>
      <trkpt lat="44.21452" lon="0.85038">
        <ele>183.9</ele>
        <time>2025-05-03T07:52:36.000Z</time>
      </trkpt>
      <trkpt lat="44.21457" lon="0.85027">
        <ele>184.4</ele>
        <time>2025-05-03T07:52:44.000Z</time>
      </trkpt>
      <trkpt lat="44.21465" lon="0.85017">
        <ele>184.2</ele>
        <time>2025-05-03T07:52:53.000Z</time>
      </trkpt>
      <trkpt lat="44.21472" lon="0.8501">
        <ele>183.9</ele>
        <time>2025-05-03T07:52:59.000Z</time>
      </trkpt>
      <trkpt lat="44.2148" lon="0.85001">
        <ele>184.3</ele>
        <time>2025-05-03T07:53:06.000Z</time>
      </trkpt>
      <trkpt lat="44.21479" lon="0.85003">
        <ele>184.2</ele>
        <time>2025-05-03T07:55:12.000Z</time>
      </trkpt>
      <trkpt lat="44.21485" lon="0.85011">
        <ele>182.7</ele>
        <time>2025-05-03T07:56:14.000Z</time>
      </trkpt>
      <trkpt lat="44.2149" lon="0.85023">
        <ele>180.7</ele>
        <time>2025-05-03T07:56:38.000Z</time>
      </trkpt>
      <trkpt lat="44.21494" lon="0.85035">
        <ele>178.5</ele>
        <time>2025-05-03T07:56:50.000Z</time>
      </trkpt>
      <trkpt lat="44.215" lon="0.85044">
        <ele>176.6</ele>
        <time>2025-05-03T07:58:00.000Z</time>
      </trkpt>
      <trkpt lat="44.21505" lon="0.85055">
        <ele>174.6</ele>
        <time>2025-05-03T07:58:10.000Z</time>
      </trkpt>
      <trkpt lat="44.21508" lon="0.85067">
        <ele>173.8</ele>
        <time>2025-05-03T07:58:18.000Z</time>
      </trkpt>
      <trkpt lat="44.21512" lon="0.85079">
        <ele>173.2</ele>
        <time>2025-05-03T07:58:26.000Z</time>
      </trkpt>
      <trkpt lat="44.21515" lon="0.85092">
        <ele>172.6</ele>
        <time>2025-05-03T07:58:36.000Z</time>
      </trkpt>
      <trkpt lat="44.21517" lon="0.85106">
        <ele>172.2</ele>
        <time>2025-05-03T07:58:44.000Z</time>
      </trkpt>
      <trkpt lat="44.21519" lon="0.8512">
        <ele>171.7</ele>
        <time>2025-05-03T07:58:52.000Z</time>
      </trkpt>
      <trkpt lat="44.2152" lon="0.85133">
        <ele>171.2</ele>
        <time>2025-05-03T07:59:00.000Z</time>
      </trkpt>
      <trkpt lat="44.21521" lon="0.85147">
        <ele>170.5</ele>
        <time>2025-05-03T07:59:08.000Z</time>
      </trkpt>
      <trkpt lat="44.21523" lon="0.85159">
        <ele>169.7</ele>
        <time>2025-05-03T07:59:16.000Z</time>
      </trkpt>
      <trkpt lat="44.21525" lon="0.85171">
        <ele>168.8</ele>
        <time>2025-05-03T07:59:24.000Z</time>
      </trkpt>
      <trkpt lat="44.21528" lon="0.85183">
        <ele>167.8</ele>
        <time>2025-05-03T07:59:32.000Z</time>
      </trkpt>
      <trkpt lat="44.21532" lon="0.85197">
        <ele>167.3</ele>
        <time>2025-05-03T07:59:42.000Z</time>
      </trkpt>
      <trkpt lat="44.21534" lon="0.85209">
        <ele>167.2</ele>
        <time>2025-05-03T07:59:50.000Z</time>
      </trkpt>
      <trkpt lat="44.2154" lon="0.85218">
        <ele>167.5</ele>
        <time>2025-05-03T08:00:00.000Z</time>
      </trkpt>
      <trkpt lat="44.21549" lon="0.85226">
        <ele>167.9</ele>
        <time>2025-05-03T08:00:12.000Z</time>
      </trkpt>
      <trkpt lat="44.21558" lon="0.8523">
        <ele>168.4</ele>
        <time>2025-05-03T08:00:20.000Z</time>
      </trkpt>
      <trkpt lat="44.21568" lon="0.85232">
        <ele>168.7</ele>
        <time>2025-05-03T08:00:30.000Z</time>
      </trkpt>
      <trkpt lat="44.21576" lon="0.85232">
        <ele>169.2</ele>
        <time>2025-05-03T08:00:38.000Z</time>
      </trkpt>
      <trkpt lat="44.21586" lon="0.8523">
        <ele>169.8</ele>
        <time>2025-05-03T08:00:48.000Z</time>
      </trkpt>
      <trkpt lat="44.21596" lon="0.85232">
        <ele>170.1</ele>
        <time>2025-05-03T08:00:56.000Z</time>
      </trkpt>
      <trkpt lat="44.21606" lon="0.85235">
        <ele>170.3</ele>
        <time>2025-05-03T08:01:04.000Z</time>
      </trkpt>
      <trkpt lat="44.21615" lon="0.85237">
        <ele>170.4</ele>
        <time>2025-05-03T08:01:12.000Z</time>
      </trkpt>
      <trkpt lat="44.21624" lon="0.85236">
        <ele>170.3</ele>
        <time>2025-05-03T08:01:20.000Z</time>
      </trkpt>
      <trkpt lat="44.21635" lon="0.85237">
        <ele>170.1</ele>
        <time>2025-05-03T08:01:29.000Z</time>
      </trkpt>
      <trkpt lat="44.21645" lon="0.85238">
        <ele>170.2</ele>
        <time>2025-05-03T08:01:38.000Z</time>
      </trkpt>
      <trkpt lat="44.21655" lon="0.85238">
        <ele>170.6</ele>
        <time>2025-05-03T08:01:48.000Z</time>
      </trkpt>
      <trkpt lat="44.21663" lon="0.85244">
        <ele>170.9</ele>
        <time>2025-05-03T08:01:56.000Z</time>
      </trkpt>
      <trkpt lat="44.2167" lon="0.85253">
        <ele>171</ele>
        <time>2025-05-03T08:02:04.000Z</time>
      </trkpt>
      <trkpt lat="44.21678" lon="0.85261">
        <ele>171</ele>
        <time>2025-05-03T08:02:13.000Z</time>
      </trkpt>
      <trkpt lat="44.21685" lon="0.85269">
        <ele>171</ele>
        <time>2025-05-03T08:02:24.000Z</time>
      </trkpt>
      <trkpt lat="44.21692" lon="0.85278">
        <ele>171</ele>
        <time>2025-05-03T08:02:36.000Z</time>
      </trkpt>
      <trkpt lat="44.21699" lon="0.85286">
        <ele>171.1</ele>
        <time>2025-05-03T08:02:46.000Z</time>
      </trkpt>
      <trkpt lat="44.21708" lon="0.85287">
        <ele>171.3</ele>
        <time>2025-05-03T08:02:55.000Z</time>
      </trkpt>
      <trkpt lat="44.21714" lon="0.85277">
        <ele>171.7</ele>
        <time>2025-05-03T08:03:06.000Z</time>
      </trkpt>
      <trkpt lat="44.2172" lon="0.85268">
        <ele>171.9</ele>
        <time>2025-05-03T08:03:14.000Z</time>
      </trkpt>
      <trkpt lat="44.21724" lon="0.85257">
        <ele>172</ele>
        <time>2025-05-03T08:03:22.000Z</time>
      </trkpt>
      <trkpt lat="44.21729" lon="0.85245">
        <ele>172</ele>
        <time>2025-05-03T08:03:30.000Z</time>
      </trkpt>
      <trkpt lat="44.21733" lon="0.85233">
        <ele>172</ele>
        <time>2025-05-03T08:03:40.000Z</time>
      </trkpt>
      <trkpt lat="44.21736" lon="0.85222">
        <ele>172</ele>
        <time>2025-05-03T08:03:48.000Z</time>
      </trkpt>
      <trkpt lat="44.2174" lon="0.8521">
        <ele>172</ele>
        <time>2025-05-03T08:03:55.000Z</time>
      </trkpt>
      <trkpt lat="44.21745" lon="0.85197">
        <ele>172</ele>
        <time>2025-05-03T08:04:06.000Z</time>
      </trkpt>
      <trkpt lat="44.21748" lon="0.85185">
        <ele>172</ele>
        <time>2025-05-03T08:04:14.000Z</time>
      </trkpt>
      <trkpt lat="44.21751" lon="0.85173">
        <ele>172</ele>
        <time>2025-05-03T08:04:24.000Z</time>
      </trkpt>
      <trkpt lat="44.21753" lon="0.8516">
        <ele>171.9</ele>
        <time>2025-05-03T08:04:32.000Z</time>
      </trkpt>
      <trkpt lat="44.21758" lon="0.85149">
        <ele>171.9</ele>
        <time>2025-05-03T08:04:39.000Z</time>
      </trkpt>
      <trkpt lat="44.21767" lon="0.85139">
        <ele>172</ele>
        <time>2025-05-03T08:04:49.000Z</time>
      </trkpt>
      <trkpt lat="44.21772" lon="0.85129">
        <ele>172</ele>
        <time>2025-05-03T08:04:57.000Z</time>
      </trkpt>
      <trkpt lat="44.21775" lon="0.85117">
        <ele>172</ele>
        <time>2025-05-03T08:05:05.000Z</time>
      </trkpt>
      <trkpt lat="44.21778" lon="0.85106">
        <ele>172</ele>
        <time>2025-05-03T08:05:13.000Z</time>
      </trkpt>
      <trkpt lat="44.21783" lon="0.85095">
        <ele>171.8</ele>
        <time>2025-05-03T08:05:21.000Z</time>
      </trkpt>
      <trkpt lat="44.21787" lon="0.85083">
        <ele>171.7</ele>
        <time>2025-05-03T08:05:29.000Z</time>
      </trkpt>
      <trkpt lat="44.21794" lon="0.85072">
        <ele>171.4</ele>
        <time>2025-05-03T08:05:37.000Z</time>
      </trkpt>
      <trkpt lat="44.21799" lon="0.8506">
        <ele>171.2</ele>
        <time>2025-05-03T08:05:45.000Z</time>
      </trkpt>
      <trkpt lat="44.21804" lon="0.85048">
        <ele>171.1</ele>
        <time>2025-05-03T08:05:53.000Z</time>
      </trkpt>
      <trkpt lat="44.21808" lon="0.85036">
        <ele>170.9</ele>
        <time>2025-05-03T08:06:01.000Z</time>
      </trkpt>
      <trkpt lat="44.21811" lon="0.85024">
        <ele>170.8</ele>
        <time>2025-05-03T08:06:09.000Z</time>
      </trkpt>
      <trkpt lat="44.21815" lon="0.85012">
        <ele>170.6</ele>
        <time>2025-05-03T08:06:17.000Z</time>
      </trkpt>
      <trkpt lat="44.2182" lon="0.85001">
        <ele>170.5</ele>
        <time>2025-05-03T08:06:25.000Z</time>
      </trkpt>
      <trkpt lat="44.21824" lon="0.84989">
        <ele>170.6</ele>
        <time>2025-05-03T08:06:33.000Z</time>
      </trkpt>
      <trkpt lat="44.21829" lon="0.84978">
        <ele>170.8</ele>
        <time>2025-05-03T08:06:41.000Z</time>
      </trkpt>
      <trkpt lat="44.21832" lon="0.84966">
        <ele>171</ele>
        <time>2025-05-03T08:06:48.000Z</time>
      </trkpt>
      <trkpt lat="44.21837" lon="0.84954">
        <ele>170.8</ele>
        <time>2025-05-03T08:06:56.000Z</time>
      </trkpt>
      <trkpt lat="44.21842" lon="0.84941">
        <ele>170.4</ele>
        <time>2025-05-03T08:07:05.000Z</time>
      </trkpt>
      <trkpt lat="44.21848" lon="0.84929">
        <ele>170.3</ele>
        <time>2025-05-03T08:07:15.000Z</time>
      </trkpt>
      <trkpt lat="44.21853" lon="0.84918">
        <ele>170.3</ele>
        <time>2025-05-03T08:07:23.000Z</time>
      </trkpt>
      <trkpt lat="44.21859" lon="0.84907">
        <ele>170</ele>
        <time>2025-05-03T08:07:31.000Z</time>
      </trkpt>
      <trkpt lat="44.21865" lon="0.84897">
        <ele>169.7</ele>
        <time>2025-05-03T08:07:39.000Z</time>
      </trkpt>
      <trkpt lat="44.21871" lon="0.84886">
        <ele>169.2</ele>
        <time>2025-05-03T08:07:47.000Z</time>
      </trkpt>
      <trkpt lat="44.21875" lon="0.84873">
        <ele>168.7</ele>
        <time>2025-05-03T08:07:55.000Z</time>
      </trkpt>
      <trkpt lat="44.21882" lon="0.84861">
        <ele>168.3</ele>
        <time>2025-05-03T08:08:04.000Z</time>
      </trkpt>
      <trkpt lat="44.21889" lon="0.84849">
        <ele>168</ele>
        <time>2025-05-03T08:08:14.000Z</time>
      </trkpt>
      <trkpt lat="44.21892" lon="0.84837">
        <ele>167.7</ele>
        <time>2025-05-03T08:08:31.000Z</time>
      </trkpt>
      <trkpt lat="44.21893" lon="0.84824">
        <ele>167.6</ele>
        <time>2025-05-03T08:08:50.000Z</time>
      </trkpt>
      <trkpt lat="44.2189" lon="0.84813">
        <ele>167.9</ele>
        <time>2025-05-03T08:11:05.000Z</time>
      </trkpt>
      <trkpt lat="44.21886" lon="0.84801">
        <ele>168.1</ele>
        <time>2025-05-03T08:11:45.000Z</time>
      </trkpt>
      <trkpt lat="44.21883" lon="0.84789">
        <ele>168.2</ele>
        <time>2025-05-03T08:11:53.000Z</time>
      </trkpt>
      <trkpt lat="44.21879" lon="0.84779">
        <ele>168.4</ele>
        <time>2025-05-03T08:12:00.000Z</time>
      </trkpt>
      <trkpt lat="44.21874" lon="0.84768">
        <ele>168.3</ele>
        <time>2025-05-03T08:12:09.000Z</time>
      </trkpt>
      <trkpt lat="44.21869" lon="0.84757">
        <ele>168.2</ele>
        <time>2025-05-03T08:12:17.000Z</time>
      </trkpt>
      <trkpt lat="44.21863" lon="0.84746">
        <ele>167.9</ele>
        <time>2025-05-03T08:12:25.000Z</time>
      </trkpt>
      <trkpt lat="44.21857" lon="0.84736">
        <ele>167.6</ele>
        <time>2025-05-03T08:12:33.000Z</time>
      </trkpt>
      <trkpt lat="44.21852" lon="0.84727">
        <ele>167.4</ele>
        <time>2025-05-03T08:12:40.000Z</time>
      </trkpt>
      <trkpt lat="44.21846" lon="0.84715">
        <ele>167.4</ele>
        <time>2025-05-03T08:12:53.000Z</time>
      </trkpt>
      <trkpt lat="44.21844" lon="0.84702">
        <ele>167.4</ele>
        <time>2025-05-03T08:13:09.000Z</time>
      </trkpt>
      <trkpt lat="44.21847" lon="0.8469">
        <ele>167.1</ele>
        <time>2025-05-03T08:13:29.000Z</time>
      </trkpt>
      <trkpt lat="44.21854" lon="0.84683">
        <ele>166.5</ele>
        <time>2025-05-03T08:13:35.000Z</time>
      </trkpt>
      <trkpt lat="44.21862" lon="0.84675">
        <ele>166</ele>
        <time>2025-05-03T08:13:44.000Z</time>
      </trkpt>
      <trkpt lat="44.2187" lon="0.84667">
        <ele>165.7</ele>
        <time>2025-05-03T08:13:52.000Z</time>
      </trkpt>
      <trkpt lat="44.21879" lon="0.84658">
        <ele>165.4</ele>
        <time>2025-05-03T08:14:00.000Z</time>
      </trkpt>
      <trkpt lat="44.21886" lon="0.84648">
        <ele>165.1</ele>
        <time>2025-05-03T08:14:08.000Z</time>
      </trkpt>
      <trkpt lat="44.21893" lon="0.84639">
        <ele>165</ele>
        <time>2025-05-03T08:14:18.000Z</time>
      </trkpt>
      <trkpt lat="44.21901" lon="0.84629">
        <ele>164.8</ele>
        <time>2025-05-03T08:14:26.000Z</time>
      </trkpt>
      <trkpt lat="44.21909" lon="0.84619">
        <ele>164.5</ele>
        <time>2025-05-03T08:14:36.000Z</time>
      </trkpt>
      <trkpt lat="44.21916" lon="0.84608">
        <ele>163.9</ele>
        <time>2025-05-03T08:14:45.000Z</time>
      </trkpt>
      <trkpt lat="44.21923" lon="0.84598">
        <ele>163.3</ele>
        <time>2025-05-03T08:14:54.000Z</time>
      </trkpt>
      <trkpt lat="44.2193" lon="0.8459">
        <ele>162.7</ele>
        <time>2025-05-03T08:15:04.000Z</time>
      </trkpt>
      <trkpt lat="44.21938" lon="0.84583">
        <ele>162.2</ele>
        <time>2025-05-03T08:15:12.000Z</time>
      </trkpt>
      <trkpt lat="44.21946" lon="0.84576">
        <ele>161.9</ele>
        <time>2025-05-03T08:15:20.000Z</time>
      </trkpt>
      <trkpt lat="44.21954" lon="0.84568">
        <ele>161.6</ele>
        <time>2025-05-03T08:15:28.000Z</time>
      </trkpt>
      <trkpt lat="44.21961" lon="0.84559">
        <ele>161.4</ele>
        <time>2025-05-03T08:15:38.000Z</time>
      </trkpt>
      <trkpt lat="44.21969" lon="0.84554">
        <ele>161.1</ele>
        <time>2025-05-03T08:15:46.000Z</time>
      </trkpt>
      <trkpt lat="44.21977" lon="0.84547">
        <ele>160.7</ele>
        <time>2025-05-03T08:15:56.000Z</time>
      </trkpt>
      <trkpt lat="44.21981" lon="0.84535">
        <ele>160.2</ele>
        <time>2025-05-03T08:16:06.000Z</time>
      </trkpt>
      <trkpt lat="44.21982" lon="0.84521">
        <ele>159.9</ele>
        <time>2025-05-03T08:16:15.000Z</time>
      </trkpt>
      <trkpt lat="44.21984" lon="0.84509">
        <ele>159.5</ele>
        <time>2025-05-03T08:16:23.000Z</time>
      </trkpt>
      <trkpt lat="44.21985" lon="0.84497">
        <ele>159.2</ele>
        <time>2025-05-03T08:16:32.000Z</time>
      </trkpt>
      <trkpt lat="44.21987" lon="0.84484">
        <ele>159.5</ele>
        <time>2025-05-03T08:16:40.000Z</time>
      </trkpt>
      <trkpt lat="44.21989" lon="0.84472">
        <ele>159.6</ele>
        <time>2025-05-03T08:16:48.000Z</time>
      </trkpt>
      <trkpt lat="44.21992" lon="0.84458">
        <ele>159.9</ele>
        <time>2025-05-03T08:16:56.000Z</time>
      </trkpt>
      <trkpt lat="44.21996" lon="0.84446">
        <ele>160.1</ele>
        <time>2025-05-03T08:17:06.000Z</time>
      </trkpt>
      <trkpt lat="44.22" lon="0.84435">
        <ele>160.1</ele>
        <time>2025-05-03T08:17:14.000Z</time>
      </trkpt>
      <trkpt lat="44.22004" lon="0.84422">
        <ele>159</ele>
        <time>2025-05-03T08:17:22.000Z</time>
      </trkpt>
      <trkpt lat="44.22007" lon="0.84409">
        <ele>157.6</ele>
        <time>2025-05-03T08:17:32.000Z</time>
      </trkpt>
      <trkpt lat="44.22011" lon="0.84398">
        <ele>156.6</ele>
        <time>2025-05-03T08:17:40.000Z</time>
      </trkpt>
      <trkpt lat="44.22016" lon="0.84388">
        <ele>155.8</ele>
        <time>2025-05-03T08:17:48.000Z</time>
      </trkpt>
      <trkpt lat="44.22021" lon="0.84376">
        <ele>155.7</ele>
        <time>2025-05-03T08:17:56.000Z</time>
      </trkpt>
      <trkpt lat="44.22024" lon="0.84365">
        <ele>156.6</ele>
        <time>2025-05-03T08:18:04.000Z</time>
      </trkpt>
      <trkpt lat="44.22019" lon="0.84355">
        <ele>157.5</ele>
        <time>2025-05-03T08:18:14.000Z</time>
      </trkpt>
      <trkpt lat="44.22012" lon="0.84347">
        <ele>157.8</ele>
        <time>2025-05-03T08:18:22.000Z</time>
      </trkpt>
      <trkpt lat="44.22006" lon="0.84337">
        <ele>157.9</ele>
        <time>2025-05-03T08:18:30.000Z</time>
      </trkpt>
      <trkpt lat="44.22" lon="0.84327">
        <ele>158</ele>
        <time>2025-05-03T08:18:38.000Z</time>
      </trkpt>
      <trkpt lat="44.21994" lon="0.84318">
        <ele>158.4</ele>
        <time>2025-05-03T08:18:46.000Z</time>
      </trkpt>
      <trkpt lat="44.21988" lon="0.84308">
        <ele>158.9</ele>
        <time>2025-05-03T08:18:54.000Z</time>
      </trkpt>
      <trkpt lat="44.2198" lon="0.84299">
        <ele>159.5</ele>
        <time>2025-05-03T08:19:04.000Z</time>
      </trkpt>
      <trkpt lat="44.21973" lon="0.84289">
        <ele>159.9</ele>
        <time>2025-05-03T08:19:14.000Z</time>
      </trkpt>
      <trkpt lat="44.21967" lon="0.84279">
        <ele>160.4</ele>
        <time>2025-05-03T08:19:23.000Z</time>
      </trkpt>
      <trkpt lat="44.21961" lon="0.84268">
        <ele>161.2</ele>
        <time>2025-05-03T08:19:34.000Z</time>
      </trkpt>
      <trkpt lat="44.21954" lon="0.84259">
        <ele>162</ele>
        <time>2025-05-03T08:19:42.000Z</time>
      </trkpt>
      <trkpt lat="44.21947" lon="0.84249">
        <ele>162.9</ele>
        <time>2025-05-03T08:19:50.000Z</time>
      </trkpt>
      <trkpt lat="44.2194" lon="0.84239">
        <ele>164.1</ele>
        <time>2025-05-03T08:20:02.000Z</time>
      </trkpt>
      <trkpt lat="44.21934" lon="0.8423">
        <ele>165.2</ele>
        <time>2025-05-03T08:20:09.000Z</time>
      </trkpt>
      <trkpt lat="44.21928" lon="0.84221">
        <ele>166.3</ele>
        <time>2025-05-03T08:20:20.000Z</time>
      </trkpt>
      <trkpt lat="44.21922" lon="0.84212">
        <ele>167.3</ele>
        <time>2025-05-03T08:20:30.000Z</time>
      </trkpt>
      <trkpt lat="44.21916" lon="0.84203">
        <ele>168.5</ele>
        <time>2025-05-03T08:20:39.000Z</time>
      </trkpt>
      <trkpt lat="44.21909" lon="0.84194">
        <ele>169.9</ele>
        <time>2025-05-03T08:20:52.000Z</time>
      </trkpt>
      <trkpt lat="44.21902" lon="0.84185">
        <ele>170.7</ele>
        <time>2025-05-03T08:21:01.000Z</time>
      </trkpt>
      <trkpt lat="44.21895" lon="0.84175">
        <ele>171.1</ele>
        <time>2025-05-03T08:21:13.000Z</time>
      </trkpt>
      <trkpt lat="44.21887" lon="0.84165">
        <ele>170.9</ele>
        <time>2025-05-03T08:21:26.000Z</time>
      </trkpt>
      <trkpt lat="44.2188" lon="0.84156">
        <ele>170.5</ele>
        <time>2025-05-03T08:22:15.000Z</time>
      </trkpt>
      <trkpt lat="44.21872" lon="0.84149">
        <ele>170</ele>
        <time>2025-05-03T08:22:22.000Z</time>
      </trkpt>
      <trkpt lat="44.21863" lon="0.84145">
        <ele>169.5</ele>
        <time>2025-05-03T08:22:30.000Z</time>
      </trkpt>
      <trkpt lat="44.21853" lon="0.84143">
        <ele>169.8</ele>
        <time>2025-05-03T08:22:41.000Z</time>
      </trkpt>
      <trkpt lat="44.21843" lon="0.8414">
        <ele>170.4</ele>
        <time>2025-05-03T08:22:49.000Z</time>
      </trkpt>
      <trkpt lat="44.21834" lon="0.84137">
        <ele>170.8</ele>
        <time>2025-05-03T08:22:57.000Z</time>
      </trkpt>
      <trkpt lat="44.21825" lon="0.84137">
        <ele>171.1</ele>
        <time>2025-05-03T08:23:05.000Z</time>
      </trkpt>
      <trkpt lat="44.21816" lon="0.84139">
        <ele>171.6</ele>
        <time>2025-05-03T08:23:13.000Z</time>
      </trkpt>
      <trkpt lat="44.21807" lon="0.84141">
        <ele>171.9</ele>
        <time>2025-05-03T08:23:21.000Z</time>
      </trkpt>
      <trkpt lat="44.21798" lon="0.84142">
        <ele>172</ele>
        <time>2025-05-03T08:23:29.000Z</time>
      </trkpt>
      <trkpt lat="44.21788" lon="0.84144">
        <ele>172</ele>
        <time>2025-05-03T08:23:37.000Z</time>
      </trkpt>
      <trkpt lat="44.2178" lon="0.84145">
        <ele>172</ele>
        <time>2025-05-03T08:23:45.000Z</time>
      </trkpt>
      <trkpt lat="44.21771" lon="0.84147">
        <ele>172.4</ele>
        <time>2025-05-03T08:23:53.000Z</time>
      </trkpt>
      <trkpt lat="44.21761" lon="0.84148">
        <ele>173</ele>
        <time>2025-05-03T08:24:05.000Z</time>
      </trkpt>
      <trkpt lat="44.21752" lon="0.8415">
        <ele>173.5</ele>
        <time>2025-05-03T08:24:13.000Z</time>
      </trkpt>
      <trkpt lat="44.21744" lon="0.84153">
        <ele>174.1</ele>
        <time>2025-05-03T08:24:21.000Z</time>
      </trkpt>
      <trkpt lat="44.21735" lon="0.84156">
        <ele>174.8</ele>
        <time>2025-05-03T08:24:29.000Z</time>
      </trkpt>
      <trkpt lat="44.21726" lon="0.84157">
        <ele>175.6</ele>
        <time>2025-05-03T08:24:37.000Z</time>
      </trkpt>
      <trkpt lat="44.21716" lon="0.84157">
        <ele>176.6</ele>
        <time>2025-05-03T08:24:49.000Z</time>
      </trkpt>
      <trkpt lat="44.21706" lon="0.84156">
        <ele>177.5</ele>
        <time>2025-05-03T08:25:01.000Z</time>
      </trkpt>
      <trkpt lat="44.21696" lon="0.84155">
        <ele>178.4</ele>
        <time>2025-05-03T08:25:09.000Z</time>
      </trkpt>
      <trkpt lat="44.21686" lon="0.84153">
        <ele>178.2</ele>
        <time>2025-05-03T08:25:19.000Z</time>
      </trkpt>
      <trkpt lat="44.21676" lon="0.84152">
        <ele>177.8</ele>
        <time>2025-05-03T08:25:29.000Z</time>
      </trkpt>
      <trkpt lat="44.21666" lon="0.84151">
        <ele>177.4</ele>
        <time>2025-05-03T08:25:37.000Z</time>
      </trkpt>
      <trkpt lat="44.21657" lon="0.8415">
        <ele>176.9</ele>
        <time>2025-05-03T08:25:45.000Z</time>
      </trkpt>
      <trkpt lat="44.21649" lon="0.84142">
        <ele>176.4</ele>
        <time>2025-05-03T08:25:55.000Z</time>
      </trkpt>
      <trkpt lat="44.21641" lon="0.84135">
        <ele>175.8</ele>
        <time>2025-05-03T08:26:04.000Z</time>
      </trkpt>
      <trkpt lat="44.21634" lon="0.84127">
        <ele>175.1</ele>
        <time>2025-05-03T08:26:12.000Z</time>
      </trkpt>
      <trkpt lat="44.21627" lon="0.84121">
        <ele>174.5</ele>
        <time>2025-05-03T08:26:20.000Z</time>
      </trkpt>
      <trkpt lat="44.21619" lon="0.84113">
        <ele>174.1</ele>
        <time>2025-05-03T08:26:28.000Z</time>
      </trkpt>
      <trkpt lat="44.21612" lon="0.84104">
        <ele>173.7</ele>
        <time>2025-05-03T08:26:36.000Z</time>
      </trkpt>
      <trkpt lat="44.21604" lon="0.84097">
        <ele>173.6</ele>
        <time>2025-05-03T08:26:44.000Z</time>
      </trkpt>
      <trkpt lat="44.21596" lon="0.84091">
        <ele>173.7</ele>
        <time>2025-05-03T08:26:52.000Z</time>
      </trkpt>
      <trkpt lat="44.21588" lon="0.84084">
        <ele>173.8</ele>
        <time>2025-05-03T08:27:00.000Z</time>
      </trkpt>
      <trkpt lat="44.2158" lon="0.84076">
        <ele>173.7</ele>
        <time>2025-05-03T08:27:07.000Z</time>
      </trkpt>
      <trkpt lat="44.21572" lon="0.8407">
        <ele>173.5</ele>
        <time>2025-05-03T08:27:17.000Z</time>
      </trkpt>
      <trkpt lat="44.21564" lon="0.84069">
        <ele>173.5</ele>
        <time>2025-05-03T08:27:26.000Z</time>
      </trkpt>
      <trkpt lat="44.21561" lon="0.84059">
        <ele>173.1</ele>
        <time>2025-05-03T08:31:36.000Z</time>
      </trkpt>
      <trkpt lat="44.21556" lon="0.84048">
        <ele>173</ele>
        <time>2025-05-03T08:31:46.000Z</time>
      </trkpt>
      <trkpt lat="44.21558" lon="0.84036">
        <ele>173</ele>
        <time>2025-05-03T08:31:56.000Z</time>
      </trkpt>
      <trkpt lat="44.21563" lon="0.84025">
        <ele>173</ele>
        <time>2025-05-03T08:32:05.000Z</time>
      </trkpt>
      <trkpt lat="44.21569" lon="0.84014">
        <ele>173</ele>
        <time>2025-05-03T08:32:15.000Z</time>
      </trkpt>
      <trkpt lat="44.21574" lon="0.84003">
        <ele>173</ele>
        <time>2025-05-03T08:32:23.000Z</time>
      </trkpt>
      <trkpt lat="44.2158" lon="0.83993">
        <ele>173.2</ele>
        <time>2025-05-03T08:32:31.000Z</time>
      </trkpt>
      <trkpt lat="44.21586" lon="0.83981">
        <ele>173.7</ele>
        <time>2025-05-03T08:32:39.000Z</time>
      </trkpt>
      <trkpt lat="44.21592" lon="0.8397">
        <ele>173.9</ele>
        <time>2025-05-03T08:32:47.000Z</time>
      </trkpt>
      <trkpt lat="44.21599" lon="0.83961">
        <ele>173.6</ele>
        <time>2025-05-03T08:32:55.000Z</time>
      </trkpt>
      <trkpt lat="44.21604" lon="0.83951">
        <ele>173.2</ele>
        <time>2025-05-03T08:33:03.000Z</time>
      </trkpt>
      <trkpt lat="44.2161" lon="0.83939">
        <ele>172.8</ele>
        <time>2025-05-03T08:33:11.000Z</time>
      </trkpt>
      <trkpt lat="44.21617" lon="0.83929">
        <ele>172.5</ele>
        <time>2025-05-03T08:33:19.000Z</time>
      </trkpt>
      <trkpt lat="44.21624" lon="0.83919">
        <ele>172.1</ele>
        <time>2025-05-03T08:33:27.000Z</time>
      </trkpt>
      <trkpt lat="44.21631" lon="0.83909">
        <ele>171.7</ele>
        <time>2025-05-03T08:33:35.000Z</time>
      </trkpt>
      <trkpt lat="44.21636" lon="0.83898">
        <ele>171.3</ele>
        <time>2025-05-03T08:33:44.000Z</time>
      </trkpt>
      <trkpt lat="44.21637" lon="0.83886">
        <ele>170.8</ele>
        <time>2025-05-03T08:33:54.000Z</time>
      </trkpt>
      <trkpt lat="44.21632" lon="0.83874">
        <ele>170.1</ele>
        <time>2025-05-03T08:34:03.000Z</time>
      </trkpt>
      <trkpt lat="44.21624" lon="0.83864">
        <ele>169.7</ele>
        <time>2025-05-03T08:34:24.000Z</time>
      </trkpt>
      <trkpt lat="44.21618" lon="0.83852">
        <ele>169.3</ele>
        <time>2025-05-03T08:34:33.000Z</time>
      </trkpt>
      <trkpt lat="44.21612" lon="0.8384">
        <ele>169.2</ele>
        <time>2025-05-03T08:34:43.000Z</time>
      </trkpt>
      <trkpt lat="44.21607" lon="0.83829">
        <ele>169</ele>
        <time>2025-05-03T08:34:51.000Z</time>
      </trkpt>
      <trkpt lat="44.21601" lon="0.83819">
        <ele>169.1</ele>
        <time>2025-05-03T08:34:59.000Z</time>
      </trkpt>
      <trkpt lat="44.21596" lon="0.83809">
        <ele>169.2</ele>
        <time>2025-05-03T08:35:05.000Z</time>
      </trkpt>
      <trkpt lat="44.21589" lon="0.83799">
        <ele>169.3</ele>
        <time>2025-05-03T08:35:15.000Z</time>
      </trkpt>
      <trkpt lat="44.21586" lon="0.83788">
        <ele>169.2</ele>
        <time>2025-05-03T08:35:25.000Z</time>
      </trkpt>
      <trkpt lat="44.21584" lon="0.83775">
        <ele>168.8</ele>
        <time>2025-05-03T08:35:32.000Z</time>
      </trkpt>
      <trkpt lat="44.2158" lon="0.83764">
        <ele>168.3</ele>
        <time>2025-05-03T08:35:41.000Z</time>
      </trkpt>
      <trkpt lat="44.21576" lon="0.83753">
        <ele>168</ele>
        <time>2025-05-03T08:35:49.000Z</time>
      </trkpt>
      <trkpt lat="44.21573" lon="0.8374">
        <ele>167.8</ele>
        <time>2025-05-03T08:35:59.000Z</time>
      </trkpt>
      <trkpt lat="44.21569" lon="0.8373">
        <ele>167.9</ele>
        <time>2025-05-03T08:36:06.000Z</time>
      </trkpt>
      <trkpt lat="44.21566" lon="0.83718">
        <ele>167.8</ele>
        <time>2025-05-03T08:36:17.000Z</time>
      </trkpt>
      <trkpt lat="44.21563" lon="0.83705">
        <ele>168.1</ele>
        <time>2025-05-03T08:36:27.000Z</time>
      </trkpt>
      <trkpt lat="44.2156" lon="0.83693">
        <ele>168.3</ele>
        <time>2025-05-03T08:36:37.000Z</time>
      </trkpt>
      <trkpt lat="44.21557" lon="0.8368">
        <ele>168.3</ele>
        <time>2025-05-03T08:36:47.000Z</time>
      </trkpt>
      <trkpt lat="44.21554" lon="0.83668">
        <ele>168.3</ele>
        <time>2025-05-03T08:37:11.000Z</time>
      </trkpt>
      <trkpt lat="44.21551" lon="0.83656">
        <ele>168.1</ele>
        <time>2025-05-03T08:37:21.000Z</time>
      </trkpt>
      <trkpt lat="44.21554" lon="0.83642">
        <ele>167.4</ele>
        <time>2025-05-03T08:39:13.000Z</time>
      </trkpt>
      <trkpt lat="44.21561" lon="0.83632">
        <ele>166.4</ele>
        <time>2025-05-03T08:39:23.000Z</time>
      </trkpt>
      <trkpt lat="44.21571" lon="0.83626">
        <ele>165.3</ele>
        <time>2025-05-03T08:39:33.000Z</time>
      </trkpt>
      <trkpt lat="44.2158" lon="0.83618">
        <ele>164.4</ele>
        <time>2025-05-03T08:39:44.000Z</time>
      </trkpt>
      <trkpt lat="44.21588" lon="0.83612">
        <ele>163.7</ele>
        <time>2025-05-03T08:39:54.000Z</time>
      </trkpt>
      <trkpt lat="44.21595" lon="0.83605">
        <ele>162.8</ele>
        <time>2025-05-03T08:40:02.000Z</time>
      </trkpt>
      <trkpt lat="44.21603" lon="0.83599">
        <ele>161.4</ele>
        <time>2025-05-03T08:40:12.000Z</time>
      </trkpt>
      <trkpt lat="44.21604" lon="0.83586">
        <ele>159.8</ele>
        <time>2025-05-03T08:40:32.000Z</time>
      </trkpt>
      <trkpt lat="44.21604" lon="0.83571">
        <ele>159.2</ele>
        <time>2025-05-03T08:40:44.000Z</time>
      </trkpt>
      <trkpt lat="44.21602" lon="0.83557">
        <ele>159.7</ele>
        <time>2025-05-03T08:40:54.000Z</time>
      </trkpt>
      <trkpt lat="44.21593" lon="0.83552">
        <ele>162.3</ele>
        <time>2025-05-03T08:41:02.000Z</time>
      </trkpt>
      <trkpt lat="44.21584" lon="0.83555">
        <ele>164.8</ele>
        <time>2025-05-03T08:41:14.000Z</time>
      </trkpt>
      <trkpt lat="44.21574" lon="0.83556">
        <ele>166</ele>
        <time>2025-05-03T08:41:25.000Z</time>
      </trkpt>
      <trkpt lat="44.21565" lon="0.8356">
        <ele>166.9</ele>
        <time>2025-05-03T08:41:35.000Z</time>
      </trkpt>
      <trkpt lat="44.21556" lon="0.83562">
        <ele>168</ele>
        <time>2025-05-03T08:41:47.000Z</time>
      </trkpt>
      <trkpt lat="44.21547" lon="0.83566">
        <ele>169.5</ele>
        <time>2025-05-03T08:41:58.000Z</time>
      </trkpt>
      <trkpt lat="44.21538" lon="0.8357">
        <ele>170.8</ele>
        <time>2025-05-03T08:42:09.000Z</time>
      </trkpt>
      <trkpt lat="44.21529" lon="0.83573">
        <ele>172.2</ele>
        <time>2025-05-03T08:42:21.000Z</time>
      </trkpt>
      <trkpt lat="44.2152" lon="0.83577">
        <ele>173</ele>
        <time>2025-05-03T08:42:33.000Z</time>
      </trkpt>
      <trkpt lat="44.21512" lon="0.83579">
        <ele>173.9</ele>
        <time>2025-05-03T08:42:45.000Z</time>
      </trkpt>
      <trkpt lat="44.21503" lon="0.83583">
        <ele>174.7</ele>
        <time>2025-05-03T08:42:55.000Z</time>
      </trkpt>
      <trkpt lat="44.21495" lon="0.83589">
        <ele>175.2</ele>
        <time>2025-05-03T08:43:05.000Z</time>
      </trkpt>
      <trkpt lat="44.21486" lon="0.83593">
        <ele>175.5</ele>
        <time>2025-05-03T08:43:15.000Z</time>
      </trkpt>
      <trkpt lat="44.21478" lon="0.83598">
        <ele>175.8</ele>
        <time>2025-05-03T08:43:25.000Z</time>
      </trkpt>
      <trkpt lat="44.21471" lon="0.83605">
        <ele>175.8</ele>
        <time>2025-05-03T08:43:38.000Z</time>
      </trkpt>
      <trkpt lat="44.21463" lon="0.83613">
        <ele>175</ele>
        <time>2025-05-03T08:43:50.000Z</time>
      </trkpt>
      <trkpt lat="44.21456" lon="0.83611">
        <ele>174.2</ele>
        <time>2025-05-03T08:44:06.000Z</time>
      </trkpt>
      <trkpt lat="44.21454" lon="0.83601">
        <ele>173.7</ele>
        <time>2025-05-03T08:45:27.000Z</time>
      </trkpt>
      <trkpt lat="44.21449" lon="0.83591">
        <ele>172.8</ele>
        <time>2025-05-03T08:49:25.000Z</time>
      </trkpt>
      <trkpt lat="44.21448" lon="0.83577">
        <ele>172.4</ele>
        <time>2025-05-03T08:49:35.000Z</time>
      </trkpt>
      <trkpt lat="44.21447" lon="0.83564">
        <ele>172.3</ele>
        <time>2025-05-03T08:49:46.000Z</time>
      </trkpt>
      <trkpt lat="44.21443" lon="0.83551">
        <ele>172</ele>
        <time>2025-05-03T08:50:01.000Z</time>
      </trkpt>
      <trkpt lat="44.21441" lon="0.83536">
        <ele>172.3</ele>
        <time>2025-05-03T08:50:09.000Z</time>
      </trkpt>
      <trkpt lat="44.21439" lon="0.83524">
        <ele>172.2</ele>
        <time>2025-05-03T08:50:15.000Z</time>
      </trkpt>
      <trkpt lat="44.21436" lon="0.83509">
        <ele>171.7</ele>
        <time>2025-05-03T08:50:23.000Z</time>
      </trkpt>
      <trkpt lat="44.21433" lon="0.83497">
        <ele>171.4</ele>
        <time>2025-05-03T08:50:29.000Z</time>
      </trkpt>
      <trkpt lat="44.2143" lon="0.83484">
        <ele>170.9</ele>
        <time>2025-05-03T08:50:37.000Z</time>
      </trkpt>
      <trkpt lat="44.21424" lon="0.83472">
        <ele>170.5</ele>
        <time>2025-05-03T08:50:45.000Z</time>
      </trkpt>
      <trkpt lat="44.2142" lon="0.8346">
        <ele>170.2</ele>
        <time>2025-05-03T08:50:52.000Z</time>
      </trkpt>
      <trkpt lat="44.21417" lon="0.83448">
        <ele>170</ele>
        <time>2025-05-03T08:50:59.000Z</time>
      </trkpt>
      <trkpt lat="44.21412" lon="0.83436">
        <ele>169.9</ele>
        <time>2025-05-03T08:51:07.000Z</time>
      </trkpt>
      <trkpt lat="44.21409" lon="0.83424">
        <ele>169.9</ele>
        <time>2025-05-03T08:51:15.000Z</time>
      </trkpt>
      <trkpt lat="44.21405" lon="0.83412">
        <ele>169.8</ele>
        <time>2025-05-03T08:51:23.000Z</time>
      </trkpt>
      <trkpt lat="44.21402" lon="0.83398">
        <ele>169.3</ele>
        <time>2025-05-03T08:51:31.000Z</time>
      </trkpt>
      <trkpt lat="44.21398" lon="0.83386">
        <ele>168.9</ele>
        <time>2025-05-03T08:51:39.000Z</time>
      </trkpt>
      <trkpt lat="44.21395" lon="0.83373">
        <ele>168.4</ele>
        <time>2025-05-03T08:51:47.000Z</time>
      </trkpt>
      <trkpt lat="44.21392" lon="0.83359">
        <ele>167.9</ele>
        <time>2025-05-03T08:51:55.000Z</time>
      </trkpt>
      <trkpt lat="44.21387" lon="0.83346">
        <ele>166.9</ele>
        <time>2025-05-03T08:52:03.000Z</time>
      </trkpt>
      <trkpt lat="44.21384" lon="0.83334">
        <ele>166.2</ele>
        <time>2025-05-03T08:52:11.000Z</time>
      </trkpt>
      <trkpt lat="44.21381" lon="0.83321">
        <ele>165.8</ele>
        <time>2025-05-03T08:52:19.000Z</time>
      </trkpt>
      <trkpt lat="44.21377" lon="0.83308">
        <ele>165.5</ele>
        <time>2025-05-03T08:52:27.000Z</time>
      </trkpt>
      <trkpt lat="44.21373" lon="0.83295">
        <ele>165.2</ele>
        <time>2025-05-03T08:52:35.000Z</time>
      </trkpt>
      <trkpt lat="44.21369" lon="0.83282">
        <ele>164.8</ele>
        <time>2025-05-03T08:52:45.000Z</time>
      </trkpt>
      <trkpt lat="44.21367" lon="0.8327">
        <ele>164.5</ele>
        <time>2025-05-03T08:52:53.000Z</time>
      </trkpt>
      <trkpt lat="44.21364" lon="0.83257">
        <ele>164.1</ele>
        <time>2025-05-03T08:53:01.000Z</time>
      </trkpt>
      <trkpt lat="44.21362" lon="0.83244">
        <ele>163.8</ele>
        <time>2025-05-03T08:53:09.000Z</time>
      </trkpt>
      <trkpt lat="44.21359" lon="0.83232">
        <ele>163.3</ele>
        <time>2025-05-03T08:53:17.000Z</time>
      </trkpt>
      <trkpt lat="44.21356" lon="0.83219">
        <ele>163</ele>
        <time>2025-05-03T08:53:25.000Z</time>
      </trkpt>
      <trkpt lat="44.21355" lon="0.83205">
        <ele>163</ele>
        <time>2025-05-03T08:53:33.000Z</time>
      </trkpt>
      <trkpt lat="44.21353" lon="0.8319">
        <ele>162.9</ele>
        <time>2025-05-03T08:53:43.000Z</time>
      </trkpt>
      <trkpt lat="44.21351" lon="0.83177">
        <ele>162.6</ele>
        <time>2025-05-03T08:53:51.000Z</time>
      </trkpt>
      <trkpt lat="44.21349" lon="0.83165">
        <ele>162.3</ele>
        <time>2025-05-03T08:53:59.000Z</time>
      </trkpt>
      <trkpt lat="44.21347" lon="0.83152">
        <ele>161.7</ele>
        <time>2025-05-03T08:54:07.000Z</time>
      </trkpt>
      <trkpt lat="44.21344" lon="0.8314">
        <ele>161.1</ele>
        <time>2025-05-03T08:54:14.000Z</time>
      </trkpt>
      <trkpt lat="44.21343" lon="0.83127">
        <ele>160.8</ele>
        <time>2025-05-03T08:54:21.000Z</time>
      </trkpt>
      <trkpt lat="44.21342" lon="0.83114">
        <ele>160.7</ele>
        <time>2025-05-03T08:54:29.000Z</time>
      </trkpt>
      <trkpt lat="44.2134" lon="0.83102">
        <ele>160.3</ele>
        <time>2025-05-03T08:54:37.000Z</time>
      </trkpt>
      <trkpt lat="44.21338" lon="0.83089">
        <ele>159.9</ele>
        <time>2025-05-03T08:54:45.000Z</time>
      </trkpt>
      <trkpt lat="44.21337" lon="0.83076">
        <ele>159.5</ele>
        <time>2025-05-03T08:54:55.000Z</time>
      </trkpt>
      <trkpt lat="44.21337" lon="0.83063">
        <ele>159</ele>
        <time>2025-05-03T08:55:05.000Z</time>
      </trkpt>
      <trkpt lat="44.21336" lon="0.8305">
        <ele>158.6</ele>
        <time>2025-05-03T08:55:13.000Z</time>
      </trkpt>
      <trkpt lat="44.21337" lon="0.83037">
        <ele>158.1</ele>
        <time>2025-05-03T08:55:25.000Z</time>
      </trkpt>
      <trkpt lat="44.21337" lon="0.83024">
        <ele>157.6</ele>
        <time>2025-05-03T08:55:35.000Z</time>
      </trkpt>
      <trkpt lat="44.21337" lon="0.83012">
        <ele>157.2</ele>
        <time>2025-05-03T08:55:49.000Z</time>
      </trkpt>
      <trkpt lat="44.2134" lon="0.83001">
        <ele>156.6</ele>
        <time>2025-05-03T08:55:57.000Z</time>
      </trkpt>
      <trkpt lat="44.21342" lon="0.82987">
        <ele>156</ele>
        <time>2025-05-03T08:56:05.000Z</time>
      </trkpt>
      <trkpt lat="44.21342" lon="0.82972">
        <ele>155.7</ele>
        <time>2025-05-03T08:56:13.000Z</time>
      </trkpt>
      <trkpt lat="44.21341" lon="0.82958">
        <ele>155.7</ele>
        <time>2025-05-03T08:56:21.000Z</time>
      </trkpt>
      <trkpt lat="44.21339" lon="0.82945">
        <ele>155.8</ele>
        <time>2025-05-03T08:56:29.000Z</time>
      </trkpt>
      <trkpt lat="44.21339" lon="0.82931">
        <ele>155.4</ele>
        <time>2025-05-03T08:56:37.000Z</time>
      </trkpt>
      <trkpt lat="44.21339" lon="0.82919">
        <ele>155.1</ele>
        <time>2025-05-03T08:56:44.000Z</time>
      </trkpt>
      <trkpt lat="44.2134" lon="0.82905">
        <ele>154.6</ele>
        <time>2025-05-03T08:56:53.000Z</time>
      </trkpt>
      <trkpt lat="44.21342" lon="0.82892">
        <ele>154.1</ele>
        <time>2025-05-03T08:57:01.000Z</time>
      </trkpt>
      <trkpt lat="44.21342" lon="0.82879">
        <ele>154</ele>
        <time>2025-05-03T08:57:09.000Z</time>
      </trkpt>
      <trkpt lat="44.21341" lon="0.82866">
        <ele>154</ele>
        <time>2025-05-03T08:57:17.000Z</time>
      </trkpt>
      <trkpt lat="44.21342" lon="0.82853">
        <ele>153.9</ele>
        <time>2025-05-03T08:57:25.000Z</time>
      </trkpt>
      <trkpt lat="44.21343" lon="0.82839">
        <ele>153.7</ele>
        <time>2025-05-03T08:57:35.000Z</time>
      </trkpt>
      <trkpt lat="44.21344" lon="0.82826">
        <ele>152.8</ele>
        <time>2025-05-03T08:57:45.000Z</time>
      </trkpt>
      <trkpt lat="44.21344" lon="0.82813">
        <ele>151</ele>
        <time>2025-05-03T08:57:55.000Z</time>
      </trkpt>
      <trkpt lat="44.21344" lon="0.828">
        <ele>149.7</ele>
        <time>2025-05-03T08:58:01.000Z</time>
      </trkpt>
      <trkpt lat="44.21345" lon="0.82785">
        <ele>149</ele>
        <time>2025-05-03T08:58:09.000Z</time>
      </trkpt>
      <trkpt lat="44.21347" lon="0.82772">
        <ele>148.9</ele>
        <time>2025-05-03T08:58:15.000Z</time>
      </trkpt>
      <trkpt lat="44.21349" lon="0.82758">
        <ele>149.5</ele>
        <time>2025-05-03T08:58:23.000Z</time>
      </trkpt>
      <trkpt lat="44.21352" lon="0.82747">
        <ele>150.1</ele>
        <time>2025-05-03T08:58:39.000Z</time>
      </trkpt>
      <trkpt lat="44.21347" lon="0.82738">
        <ele>149.2</ele>
        <time>2025-05-03T08:58:49.000Z</time>
      </trkpt>
      <trkpt lat="44.21347" lon="0.82724">
        <ele>149.3</ele>
        <time>2025-05-03T08:58:56.000Z</time>
      </trkpt>
      <trkpt lat="44.21346" lon="0.82711">
        <ele>149.7</ele>
        <time>2025-05-03T08:59:07.000Z</time>
      </trkpt>
      <trkpt lat="44.21344" lon="0.82699">
        <ele>150</ele>
        <time>2025-05-03T08:59:23.000Z</time>
      </trkpt>
      <trkpt lat="44.21343" lon="0.82687">
        <ele>150.2</ele>
        <time>2025-05-03T08:59:47.000Z</time>
      </trkpt>
      <trkpt lat="44.21339" lon="0.82676">
        <ele>150.4</ele>
        <time>2025-05-03T09:00:03.000Z</time>
      </trkpt>
      <trkpt lat="44.21333" lon="0.82666">
        <ele>151</ele>
        <time>2025-05-03T09:00:19.000Z</time>
      </trkpt>
      <trkpt lat="44.21326" lon="0.82658">
        <ele>147.7</ele>
        <time>2025-05-03T09:00:27.000Z</time>
      </trkpt>
      <trkpt lat="44.21324" lon="0.82646">
        <ele>146.9</ele>
        <time>2025-05-03T09:01:10.000Z</time>
      </trkpt>
      <trkpt lat="44.21321" lon="0.82633">
        <ele>145.5</ele>
        <time>2025-05-03T09:01:19.000Z</time>
      </trkpt>
      <trkpt lat="44.21318" lon="0.8262">
        <ele>143.9</ele>
        <time>2025-05-03T09:01:43.000Z</time>
      </trkpt>
      <trkpt lat="44.21313" lon="0.82608">
        <ele>143</ele>
        <time>2025-05-03T09:01:51.000Z</time>
      </trkpt>
      <trkpt lat="44.21306" lon="0.82597">
        <ele>142.5</ele>
        <time>2025-05-03T09:02:01.000Z</time>
      </trkpt>
      <trkpt lat="44.21301" lon="0.82586">
        <ele>141.3</ele>
        <time>2025-05-03T09:02:11.000Z</time>
      </trkpt>
      <trkpt lat="44.21296" lon="0.82575">
        <ele>140.3</ele>
        <time>2025-05-03T09:02:21.000Z</time>
      </trkpt>
      <trkpt lat="44.21291" lon="0.82565">
        <ele>139.6</ele>
        <time>2025-05-03T09:03:41.000Z</time>
      </trkpt>
      <trkpt lat="44.21288" lon="0.82552">
        <ele>139.3</ele>
        <time>2025-05-03T09:04:51.000Z</time>
      </trkpt>
      <trkpt lat="44.21284" lon="0.82539">
        <ele>139.6</ele>
        <time>2025-05-03T09:05:01.000Z</time>
      </trkpt>
      <trkpt lat="44.21278" lon="0.8253">
        <ele>140.8</ele>
        <time>2025-05-03T09:05:10.000Z</time>
      </trkpt>
      <trkpt lat="44.21274" lon="0.82518">
        <ele>140.5</ele>
        <time>2025-05-03T09:05:18.000Z</time>
      </trkpt>
      <trkpt lat="44.21271" lon="0.82505">
        <ele>140.4</ele>
        <time>2025-05-03T09:05:26.000Z</time>
      </trkpt>
      <trkpt lat="44.2127" lon="0.82491">
        <ele>141</ele>
        <time>2025-05-03T09:05:34.000Z</time>
      </trkpt>
      <trkpt lat="44.21267" lon="0.82478">
        <ele>141.6</ele>
        <time>2025-05-03T09:05:39.000Z</time>
      </trkpt>
      <trkpt lat="44.21264" lon="0.82465">
        <ele>142.5</ele>
        <time>2025-05-03T09:05:48.000Z</time>
      </trkpt>
      <trkpt lat="44.21261" lon="0.82452">
        <ele>143.4</ele>
        <time>2025-05-03T09:05:56.000Z</time>
      </trkpt>
      <trkpt lat="44.21253" lon="0.82451">
        <ele>143.5</ele>
        <time>2025-05-03T09:06:08.000Z</time>
      </trkpt>
      <trkpt lat="44.21244" lon="0.82457">
        <ele>142.2</ele>
        <time>2025-05-03T09:06:16.000Z</time>
      </trkpt>
      <trkpt lat="44.21236" lon="0.82463">
        <ele>140.3</ele>
        <time>2025-05-03T09:06:31.000Z</time>
      </trkpt>
      <trkpt lat="44.21229" lon="0.82472">
        <ele>138.3</ele>
        <time>2025-05-03T09:07:07.000Z</time>
      </trkpt>
      <trkpt lat="44.21222" lon="0.8248">
        <ele>136.1</ele>
        <time>2025-05-03T09:07:18.000Z</time>
      </trkpt>
      <trkpt lat="44.21214" lon="0.82488">
        <ele>133.7</ele>
        <time>2025-05-03T09:07:29.000Z</time>
      </trkpt>
      <trkpt lat="44.21207" lon="0.82495">
        <ele>131.3</ele>
        <time>2025-05-03T09:07:39.000Z</time>
      </trkpt>
      <trkpt lat="44.212" lon="0.82504">
        <ele>128.7</ele>
        <time>2025-05-03T09:07:49.000Z</time>
      </trkpt>
      <trkpt lat="44.21193" lon="0.82512">
        <ele>126</ele>
        <time>2025-05-03T09:07:59.000Z</time>
      </trkpt>
      <trkpt lat="44.21186" lon="0.8252">
        <ele>123.5</ele>
        <time>2025-05-03T09:08:11.000Z</time>
      </trkpt>
      <trkpt lat="44.21179" lon="0.82529">
        <ele>121.1</ele>
        <time>2025-05-03T09:08:20.000Z</time>
      </trkpt>
      <trkpt lat="44.21173" lon="0.82535">
        <ele>119.2</ele>
        <time>2025-05-03T09:08:37.000Z</time>
      </trkpt>
      <trkpt lat="44.21175" lon="0.82545">
        <ele>118.3</ele>
        <time>2025-05-03T09:09:45.000Z</time>
      </trkpt>
      <trkpt lat="44.21181" lon="0.82556">
        <ele>117.5</ele>
        <time>2025-05-03T09:10:07.000Z</time>
      </trkpt>
      <trkpt lat="44.21188" lon="0.82565">
        <ele>117.5</ele>
        <time>2025-05-03T09:10:17.000Z</time>
      </trkpt>
      <trkpt lat="44.21195" lon="0.82574">
        <ele>117.1</ele>
        <time>2025-05-03T09:10:41.000Z</time>
      </trkpt>
      <trkpt lat="44.21202" lon="0.82583">
        <ele>117.1</ele>
        <time>2025-05-03T09:11:14.000Z</time>
      </trkpt>
      <trkpt lat="44.21208" lon="0.82593">
        <ele>117.6</ele>
        <time>2025-05-03T09:11:36.000Z</time>
      </trkpt>
      <trkpt lat="44.21212" lon="0.82607">
        <ele>117.5</ele>
        <time>2025-05-03T09:14:36.000Z</time>
      </trkpt>
      <trkpt lat="44.21213" lon="0.82621">
        <ele>117.1</ele>
        <time>2025-05-03T09:14:46.000Z</time>
      </trkpt>
      <trkpt lat="44.21214" lon="0.82635">
        <ele>116.8</ele>
        <time>2025-05-03T09:14:56.000Z</time>
      </trkpt>
      <trkpt lat="44.21217" lon="0.82648">
        <ele>116.8</ele>
        <time>2025-05-03T09:15:26.000Z</time>
      </trkpt>
      <trkpt lat="44.21218" lon="0.8266">
        <ele>116.8</ele>
        <time>2025-05-03T09:15:36.000Z</time>
      </trkpt>
      <trkpt lat="44.21215" lon="0.82672">
        <ele>116.7</ele>
        <time>2025-05-03T09:15:52.000Z</time>
      </trkpt>
      <trkpt lat="44.21212" lon="0.82683">
        <ele>116.6</ele>
        <time>2025-05-03T09:16:22.000Z</time>
      </trkpt>
      <trkpt lat="44.21211" lon="0.82695">
        <ele>116.6</ele>
        <time>2025-05-03T09:16:30.000Z</time>
      </trkpt>
      <trkpt lat="44.21206" lon="0.82706">
        <ele>117</ele>
        <time>2025-05-03T09:16:40.000Z</time>
      </trkpt>
      <trkpt lat="44.21201" lon="0.82717">
        <ele>117.2</ele>
        <time>2025-05-03T09:16:50.000Z</time>
      </trkpt>
      <trkpt lat="44.21197" lon="0.82728">
        <ele>117.2</ele>
        <time>2025-05-03T09:17:00.000Z</time>
      </trkpt>
      <trkpt lat="44.21191" lon="0.82739">
        <ele>117.1</ele>
        <time>2025-05-03T09:17:46.000Z</time>
      </trkpt>
      <trkpt lat="44.21186" lon="0.8275">
        <ele>117.3</ele>
        <time>2025-05-03T09:17:56.000Z</time>
      </trkpt>
      <trkpt lat="44.21178" lon="0.82758">
        <ele>117.8</ele>
        <time>2025-05-03T09:18:06.000Z</time>
      </trkpt>
      <trkpt lat="44.21173" lon="0.82767">
        <ele>118.1</ele>
        <time>2025-05-03T09:18:45.000Z</time>
      </trkpt>
      <trkpt lat="44.21165" lon="0.82765">
        <ele>118.5</ele>
        <time>2025-05-03T09:18:54.000Z</time>
      </trkpt>
      <trkpt lat="44.21161" lon="0.82755">
        <ele>119.4</ele>
        <time>2025-05-03T09:19:07.000Z</time>
      </trkpt>
      <trkpt lat="44.21155" lon="0.82743">
        <ele>120</ele>
        <time>2025-05-03T09:19:21.000Z</time>
      </trkpt>
      <trkpt lat="44.21154" lon="0.82729">
        <ele>119.3</ele>
        <time>2025-05-03T09:19:35.000Z</time>
      </trkpt>
      <trkpt lat="44.21153" lon="0.82716">
        <ele>118.6</ele>
        <time>2025-05-03T09:19:43.000Z</time>
      </trkpt>
      <trkpt lat="44.2115" lon="0.82704">
        <ele>118.2</ele>
        <time>2025-05-03T09:19:53.000Z</time>
      </trkpt>
      <trkpt lat="44.21145" lon="0.82693">
        <ele>117.7</ele>
        <time>2025-05-03T09:20:02.000Z</time>
      </trkpt>
      <trkpt lat="44.21137" lon="0.82686">
        <ele>117.5</ele>
        <time>2025-05-03T09:20:13.000Z</time>
      </trkpt>
      <trkpt lat="44.21128" lon="0.8268">
        <ele>118.1</ele>
        <time>2025-05-03T09:20:23.000Z</time>
      </trkpt>
      <trkpt lat="44.2112" lon="0.82676">
        <ele>118.9</ele>
        <time>2025-05-03T09:20:33.000Z</time>
      </trkpt>
      <trkpt lat="44.21112" lon="0.8268">
        <ele>119.9</ele>
        <time>2025-05-03T09:20:57.000Z</time>
      </trkpt>
      <trkpt lat="44.21104" lon="0.82683">
        <ele>121.3</ele>
        <time>2025-05-03T09:21:13.000Z</time>
      </trkpt>
      <trkpt lat="44.21096" lon="0.82677">
        <ele>122.7</ele>
        <time>2025-05-03T09:21:43.000Z</time>
      </trkpt>
      <trkpt lat="44.21088" lon="0.82671">
        <ele>124.2</ele>
        <time>2025-05-03T09:21:57.000Z</time>
      </trkpt>
      <trkpt lat="44.21078" lon="0.82669">
        <ele>125.4</ele>
        <time>2025-05-03T09:22:07.000Z</time>
      </trkpt>
      <trkpt lat="44.21069" lon="0.82664">
        <ele>125.8</ele>
        <time>2025-05-03T09:22:19.000Z</time>
      </trkpt>
      <trkpt lat="44.21061" lon="0.82657">
        <ele>125.4</ele>
        <time>2025-05-03T09:22:33.000Z</time>
      </trkpt>
      <trkpt lat="44.21054" lon="0.82662">
        <ele>126.3</ele>
        <time>2025-05-03T09:24:32.000Z</time>
      </trkpt>
      <trkpt lat="44.2105" lon="0.82672">
        <ele>127.8</ele>
        <time>2025-05-03T09:24:43.000Z</time>
      </trkpt>
      <trkpt lat="44.21045" lon="0.82682">
        <ele>129.4</ele>
        <time>2025-05-03T09:24:53.000Z</time>
      </trkpt>
      <trkpt lat="44.2104" lon="0.82694">
        <ele>131.6</ele>
        <time>2025-05-03T09:25:05.000Z</time>
      </trkpt>
      <trkpt lat="44.21034" lon="0.82702">
        <ele>132.9</ele>
        <time>2025-05-03T09:25:19.000Z</time>
      </trkpt>
      <trkpt lat="44.21025" lon="0.82706">
        <ele>134.1</ele>
        <time>2025-05-03T09:25:33.000Z</time>
      </trkpt>
      <trkpt lat="44.21016" lon="0.8271">
        <ele>135.2</ele>
        <time>2025-05-03T09:25:45.000Z</time>
      </trkpt>
      <trkpt lat="44.21007" lon="0.82712">
        <ele>136.2</ele>
        <time>2025-05-03T09:25:57.000Z</time>
      </trkpt>
      <trkpt lat="44.21" lon="0.82719">
        <ele>137.7</ele>
        <time>2025-05-03T09:27:53.000Z</time>
      </trkpt>
      <trkpt lat="44.20993" lon="0.82729">
        <ele>138.3</ele>
        <time>2025-05-03T09:28:05.000Z</time>
      </trkpt>
      <trkpt lat="44.20986" lon="0.82738">
        <ele>139.3</ele>
        <time>2025-05-03T09:28:17.000Z</time>
      </trkpt>
      <trkpt lat="44.20979" lon="0.82747">
        <ele>140.5</ele>
        <time>2025-05-03T09:28:27.000Z</time>
      </trkpt>
      <trkpt lat="44.20972" lon="0.82756">
        <ele>142</ele>
        <time>2025-05-03T09:28:35.000Z</time>
      </trkpt>
      <trkpt lat="44.20964" lon="0.82762">
        <ele>143.1</ele>
        <time>2025-05-03T09:28:43.000Z</time>
      </trkpt>
      <trkpt lat="44.20956" lon="0.82769">
        <ele>145.1</ele>
        <time>2025-05-03T09:28:55.000Z</time>
      </trkpt>
      <trkpt lat="44.20947" lon="0.82777">
        <ele>148.3</ele>
        <time>2025-05-03T09:29:07.000Z</time>
      </trkpt>
      <trkpt lat="44.20939" lon="0.82785">
        <ele>148.6</ele>
        <time>2025-05-03T09:29:15.000Z</time>
      </trkpt>
      <trkpt lat="44.2093" lon="0.82792">
        <ele>148.3</ele>
        <time>2025-05-03T09:29:27.000Z</time>
      </trkpt>
      <trkpt lat="44.20922" lon="0.82799">
        <ele>149.2</ele>
        <time>2025-05-03T09:29:35.000Z</time>
      </trkpt>
      <trkpt lat="44.20913" lon="0.82807">
        <ele>150</ele>
        <time>2025-05-03T09:29:47.000Z</time>
      </trkpt>
      <trkpt lat="44.20905" lon="0.82814">
        <ele>148.9</ele>
        <time>2025-05-03T09:29:55.000Z</time>
      </trkpt>
      <trkpt lat="44.20897" lon="0.8282">
        <ele>149.2</ele>
        <time>2025-05-03T09:30:06.000Z</time>
      </trkpt>
      <trkpt lat="44.2089" lon="0.8283">
        <ele>151.7</ele>
        <time>2025-05-03T09:30:14.000Z</time>
      </trkpt>
      <trkpt lat="44.20882" lon="0.82838">
        <ele>151.2</ele>
        <time>2025-05-03T09:30:22.000Z</time>
      </trkpt>
      <trkpt lat="44.20873" lon="0.82844">
        <ele>150</ele>
        <time>2025-05-03T09:30:32.000Z</time>
      </trkpt>
      <trkpt lat="44.20864" lon="0.82851">
        <ele>150.5</ele>
        <time>2025-05-03T09:30:44.000Z</time>
      </trkpt>
      <trkpt lat="44.20857" lon="0.82857">
        <ele>151.3</ele>
        <time>2025-05-03T09:30:52.000Z</time>
      </trkpt>
      <trkpt lat="44.20849" lon="0.82865">
        <ele>151</ele>
        <time>2025-05-03T09:31:00.000Z</time>
      </trkpt>
      <trkpt lat="44.20841" lon="0.82872">
        <ele>150.3</ele>
        <time>2025-05-03T09:31:08.000Z</time>
      </trkpt>
      <trkpt lat="44.20833" lon="0.82878">
        <ele>150.3</ele>
        <time>2025-05-03T09:31:14.000Z</time>
      </trkpt>
      <trkpt lat="44.20825" lon="0.82886">
        <ele>150.4</ele>
        <time>2025-05-03T09:31:21.000Z</time>
      </trkpt>
      <trkpt lat="44.20818" lon="0.82895">
        <ele>150.5</ele>
        <time>2025-05-03T09:31:31.000Z</time>
      </trkpt>
      <trkpt lat="44.20811" lon="0.82903">
        <ele>150.7</ele>
        <time>2025-05-03T09:31:41.000Z</time>
      </trkpt>
      <trkpt lat="44.20803" lon="0.8291">
        <ele>151</ele>
        <time>2025-05-03T09:31:49.000Z</time>
      </trkpt>
      <trkpt lat="44.20793" lon="0.82913">
        <ele>150</ele>
        <time>2025-05-03T09:32:11.000Z</time>
      </trkpt>
      <trkpt lat="44.20786" lon="0.82919">
        <ele>149.8</ele>
        <time>2025-05-03T09:32:16.000Z</time>
      </trkpt>
      <trkpt lat="44.20779" lon="0.82927">
        <ele>150.1</ele>
        <time>2025-05-03T09:32:25.000Z</time>
      </trkpt>
      <trkpt lat="44.20772" lon="0.82933">
        <ele>150.5</ele>
        <time>2025-05-03T09:32:33.000Z</time>
      </trkpt>
      <trkpt lat="44.20763" lon="0.8294">
        <ele>151.1</ele>
        <time>2025-05-03T09:32:41.000Z</time>
      </trkpt>
      <trkpt lat="44.20756" lon="0.82947">
        <ele>151.5</ele>
        <time>2025-05-03T09:33:03.000Z</time>
      </trkpt>
      <trkpt lat="44.2075" lon="0.82958">
        <ele>151.5</ele>
        <time>2025-05-03T09:33:17.000Z</time>
      </trkpt>
      <trkpt lat="44.20751" lon="0.82971">
        <ele>152</ele>
        <time>2025-05-03T09:35:14.000Z</time>
      </trkpt>
      <trkpt lat="44.20753" lon="0.82984">
        <ele>152.5</ele>
        <time>2025-05-03T09:35:24.000Z</time>
      </trkpt>
      <trkpt lat="44.20753" lon="0.82997">
        <ele>153</ele>
        <time>2025-05-03T09:35:32.000Z</time>
      </trkpt>
      <trkpt lat="44.20752" lon="0.83009">
        <ele>153.8</ele>
        <time>2025-05-03T09:35:39.000Z</time>
      </trkpt>
      <trkpt lat="44.20751" lon="0.83023">
        <ele>154.7</ele>
        <time>2025-05-03T09:35:50.000Z</time>
      </trkpt>
      <trkpt lat="44.20752" lon="0.83036">
        <ele>155.7</ele>
        <time>2025-05-03T09:35:58.000Z</time>
      </trkpt>
      <trkpt lat="44.2075" lon="0.83048">
        <ele>156.5</ele>
        <time>2025-05-03T09:36:06.000Z</time>
      </trkpt>
      <trkpt lat="44.20749" lon="0.83061">
        <ele>157.4</ele>
        <time>2025-05-03T09:36:14.000Z</time>
      </trkpt>
      <trkpt lat="44.2075" lon="0.83074">
        <ele>158.3</ele>
        <time>2025-05-03T09:36:22.000Z</time>
      </trkpt>
      <trkpt lat="44.20749" lon="0.83086">
        <ele>159.2</ele>
        <time>2025-05-03T09:36:29.000Z</time>
      </trkpt>
      <trkpt lat="44.20748" lon="0.83099">
        <ele>160.1</ele>
        <time>2025-05-03T09:36:38.000Z</time>
      </trkpt>
      <trkpt lat="44.20747" lon="0.83113">
        <ele>161</ele>
        <time>2025-05-03T09:37:00.000Z</time>
      </trkpt>
      <trkpt lat="44.20745" lon="0.83127">
        <ele>161.8</ele>
        <time>2025-05-03T09:37:08.000Z</time>
      </trkpt>
      <trkpt lat="44.20744" lon="0.83139">
        <ele>162.6</ele>
        <time>2025-05-03T09:37:16.000Z</time>
      </trkpt>
      <trkpt lat="44.20743" lon="0.83151">
        <ele>163.4</ele>
        <time>2025-05-03T09:37:24.000Z</time>
      </trkpt>
      <trkpt lat="44.20743" lon="0.83166">
        <ele>164.4</ele>
        <time>2025-05-03T09:37:34.000Z</time>
      </trkpt>
      <trkpt lat="44.20741" lon="0.8318">
        <ele>165.3</ele>
        <time>2025-05-03T09:37:44.000Z</time>
      </trkpt>
      <trkpt lat="44.20737" lon="0.83192">
        <ele>165.9</ele>
        <time>2025-05-03T09:37:52.000Z</time>
      </trkpt>
      <trkpt lat="44.20733" lon="0.83203">
        <ele>166.4</ele>
        <time>2025-05-03T09:38:00.000Z</time>
      </trkpt>
      <trkpt lat="44.20727" lon="0.83214">
        <ele>166.8</ele>
        <time>2025-05-03T09:38:08.000Z</time>
      </trkpt>
      <trkpt lat="44.20721" lon="0.83224">
        <ele>167.1</ele>
        <time>2025-05-03T09:38:18.000Z</time>
      </trkpt>
      <trkpt lat="44.20713" lon="0.83233">
        <ele>167.7</ele>
        <time>2025-05-03T09:38:27.000Z</time>
      </trkpt>
      <trkpt lat="44.20706" lon="0.83241">
        <ele>168</ele>
        <time>2025-05-03T09:38:33.000Z</time>
      </trkpt>
      <trkpt lat="44.20699" lon="0.8325">
        <ele>168.3</ele>
        <time>2025-05-03T09:38:39.000Z</time>
      </trkpt>
      <trkpt lat="44.20693" lon="0.83258">
        <ele>168.5</ele>
        <time>2025-05-03T09:38:47.000Z</time>
      </trkpt>
      <trkpt lat="44.20687" lon="0.83268">
        <ele>169</ele>
        <time>2025-05-03T09:38:54.000Z</time>
      </trkpt>
      <trkpt lat="44.20681" lon="0.83279">
        <ele>169.6</ele>
        <time>2025-05-03T09:39:03.000Z</time>
      </trkpt>
      <trkpt lat="44.20676" lon="0.83292">
        <ele>169.8</ele>
        <time>2025-05-03T09:39:11.000Z</time>
      </trkpt>
      <trkpt lat="44.20671" lon="0.83305">
        <ele>170.1</ele>
        <time>2025-05-03T09:39:21.000Z</time>
      </trkpt>
      <trkpt lat="44.20666" lon="0.83316">
        <ele>170.4</ele>
        <time>2025-05-03T09:39:29.000Z</time>
      </trkpt>
      <trkpt lat="44.20661" lon="0.83326">
        <ele>170.5</ele>
        <time>2025-05-03T09:39:37.000Z</time>
      </trkpt>
      <trkpt lat="44.20655" lon="0.83336">
        <ele>170.7</ele>
        <time>2025-05-03T09:39:45.000Z</time>
      </trkpt>
      <trkpt lat="44.2065" lon="0.83348">
        <ele>170.6</ele>
        <time>2025-05-03T09:39:53.000Z</time>
      </trkpt>
      <trkpt lat="44.20645" lon="0.83359">
        <ele>170.5</ele>
        <time>2025-05-03T09:40:01.000Z</time>
      </trkpt>
      <trkpt lat="44.20639" lon="0.8337">
        <ele>170.3</ele>
        <time>2025-05-03T09:40:09.000Z</time>
      </trkpt>
      <trkpt lat="44.20639" lon="0.83381">
        <ele>170.7</ele>
        <time>2025-05-03T09:40:17.000Z</time>
      </trkpt>
      <trkpt lat="44.20623" lon="0.83372">
        <ele>169</ele>
        <time>2025-05-03T09:40:27.000Z</time>
      </trkpt>
      <trkpt lat="44.20614" lon="0.83369">
        <ele>168.3</ele>
        <time>2025-05-03T09:40:34.000Z</time>
      </trkpt>
      <trkpt lat="44.20605" lon="0.83369">
        <ele>167.7</ele>
        <time>2025-05-03T09:40:43.000Z</time>
      </trkpt>
      <trkpt lat="44.20594" lon="0.83368">
        <ele>167.2</ele>
        <time>2025-05-03T09:40:51.000Z</time>
      </trkpt>
      <trkpt lat="44.20585" lon="0.83369">
        <ele>166.8</ele>
        <time>2025-05-03T09:40:59.000Z</time>
      </trkpt>
      <trkpt lat="44.20573" lon="0.83368">
        <ele>166.6</ele>
        <time>2025-05-03T09:41:10.000Z</time>
      </trkpt>
      <trkpt lat="44.20563" lon="0.8337">
        <ele>166.4</ele>
        <time>2025-05-03T09:41:16.000Z</time>
      </trkpt>
      <trkpt lat="44.20552" lon="0.83371">
        <ele>166.2</ele>
        <time>2025-05-03T09:41:24.000Z</time>
      </trkpt>
      <trkpt lat="44.20543" lon="0.83371">
        <ele>165.8</ele>
        <time>2025-05-03T09:41:31.000Z</time>
      </trkpt>
      <trkpt lat="44.20534" lon="0.83371">
        <ele>165.5</ele>
        <time>2025-05-03T09:41:38.000Z</time>
      </trkpt>
      <trkpt lat="44.20525" lon="0.8337">
        <ele>165.3</ele>
        <time>2025-05-03T09:41:43.000Z</time>
      </trkpt>
      <trkpt lat="44.20515" lon="0.83368">
        <ele>165</ele>
        <time>2025-05-03T09:41:51.000Z</time>
      </trkpt>
      <trkpt lat="44.20506" lon="0.83364">
        <ele>165</ele>
        <time>2025-05-03T09:41:59.000Z</time>
      </trkpt>
      <trkpt lat="44.20498" lon="0.8336">
        <ele>164.9</ele>
        <time>2025-05-03T09:42:08.000Z</time>
      </trkpt>
      <trkpt lat="44.2049" lon="0.83353">
        <ele>164.7</ele>
        <time>2025-05-03T09:42:34.000Z</time>
      </trkpt>
      <trkpt lat="44.20477" lon="0.8335">
        <ele>164.1</ele>
        <time>2025-05-03T09:42:46.000Z</time>
      </trkpt>
      <trkpt lat="44.20466" lon="0.83347">
        <ele>163.8</ele>
        <time>2025-05-03T09:42:54.000Z</time>
      </trkpt>
      <trkpt lat="44.20456" lon="0.83343">
        <ele>163.9</ele>
        <time>2025-05-03T09:43:01.000Z</time>
      </trkpt>
      <trkpt lat="44.20448" lon="0.83339">
        <ele>164.2</ele>
        <time>2025-05-03T09:43:07.000Z</time>
      </trkpt>
      <trkpt lat="44.20438" lon="0.83338">
        <ele>164.6</ele>
        <time>2025-05-03T09:43:16.000Z</time>
      </trkpt>
      <trkpt lat="44.20428" lon="0.83339">
        <ele>164.8</ele>
        <time>2025-05-03T09:43:25.000Z</time>
      </trkpt>
      <trkpt lat="44.20418" lon="0.83341">
        <ele>164.8</ele>
        <time>2025-05-03T09:43:35.000Z</time>
      </trkpt>
      <trkpt lat="44.20408" lon="0.83341">
        <ele>165.2</ele>
        <time>2025-05-03T09:43:43.000Z</time>
      </trkpt>
      <trkpt lat="44.20399" lon="0.83344">
        <ele>165.3</ele>
        <time>2025-05-03T09:43:53.000Z</time>
      </trkpt>
      <trkpt lat="44.20391" lon="0.83344">
        <ele>165.8</ele>
        <time>2025-05-03T09:44:01.000Z</time>
      </trkpt>
      <trkpt lat="44.20382" lon="0.83341">
        <ele>166.5</ele>
        <time>2025-05-03T09:44:09.000Z</time>
      </trkpt>
      <trkpt lat="44.20373" lon="0.83335">
        <ele>167.4</ele>
        <time>2025-05-03T09:44:17.000Z</time>
      </trkpt>
      <trkpt lat="44.20363" lon="0.83328">
        <ele>167.9</ele>
        <time>2025-05-03T09:44:25.000Z</time>
      </trkpt>
      <trkpt lat="44.20354" lon="0.83323">
        <ele>167.3</ele>
        <time>2025-05-03T09:44:33.000Z</time>
      </trkpt>
      <trkpt lat="44.20345" lon="0.83319">
        <ele>166.5</ele>
        <time>2025-05-03T09:44:41.000Z</time>
      </trkpt>
      <trkpt lat="44.20337" lon="0.83321">
        <ele>165.9</ele>
        <time>2025-05-03T09:44:57.000Z</time>
      </trkpt>
      <trkpt lat="44.20332" lon="0.83332">
        <ele>165.9</ele>
        <time>2025-05-03T09:45:23.000Z</time>
      </trkpt>
      <trkpt lat="44.20328" lon="0.83346">
        <ele>165.8</ele>
        <time>2025-05-03T09:45:33.000Z</time>
      </trkpt>
      <trkpt lat="44.20323" lon="0.83358">
        <ele>165.6</ele>
        <time>2025-05-03T09:45:41.000Z</time>
      </trkpt>
      <trkpt lat="44.20316" lon="0.83365">
        <ele>165.1</ele>
        <time>2025-05-03T09:45:47.000Z</time>
      </trkpt>
      <trkpt lat="44.20308" lon="0.8337">
        <ele>164.4</ele>
        <time>2025-05-03T09:45:54.000Z</time>
      </trkpt>
      <trkpt lat="44.20299" lon="0.83374">
        <ele>163.1</ele>
        <time>2025-05-03T09:46:05.000Z</time>
      </trkpt>
      <trkpt lat="44.20293" lon="0.83384">
        <ele>161.5</ele>
        <time>2025-05-03T09:46:17.000Z</time>
      </trkpt>
      <trkpt lat="44.20286" lon="0.83393">
        <ele>159.7</ele>
        <time>2025-05-03T09:46:25.000Z</time>
      </trkpt>
      <trkpt lat="44.20277" lon="0.83395">
        <ele>158.4</ele>
        <time>2025-05-03T09:46:33.000Z</time>
      </trkpt>
      <trkpt lat="44.20268" lon="0.83392">
        <ele>157</ele>
        <time>2025-05-03T09:46:43.000Z</time>
      </trkpt>
      <trkpt lat="44.20258" lon="0.83389">
        <ele>155.5</ele>
        <time>2025-05-03T09:46:53.000Z</time>
      </trkpt>
      <trkpt lat="44.20248" lon="0.83388">
        <ele>153.8</ele>
        <time>2025-05-03T09:47:02.000Z</time>
      </trkpt>
      <trkpt lat="44.20237" lon="0.83386">
        <ele>153</ele>
        <time>2025-05-03T09:47:11.000Z</time>
      </trkpt>
      <trkpt lat="44.20225" lon="0.83385">
        <ele>152.1</ele>
        <time>2025-05-03T09:47:19.000Z</time>
      </trkpt>
      <trkpt lat="44.20214" lon="0.83384">
        <ele>151.3</ele>
        <time>2025-05-03T09:47:27.000Z</time>
      </trkpt>
      <trkpt lat="44.20204" lon="0.83382">
        <ele>150.5</ele>
        <time>2025-05-03T09:47:35.000Z</time>
      </trkpt>
      <trkpt lat="44.20194" lon="0.83381">
        <ele>149.6</ele>
        <time>2025-05-03T09:47:43.000Z</time>
      </trkpt>
      <trkpt lat="44.20185" lon="0.8338">
        <ele>149.2</ele>
        <time>2025-05-03T09:47:51.000Z</time>
      </trkpt>
      <trkpt lat="44.20176" lon="0.83377">
        <ele>148.3</ele>
        <time>2025-05-03T09:47:59.000Z</time>
      </trkpt>
      <trkpt lat="44.20167" lon="0.83375">
        <ele>147.5</ele>
        <time>2025-05-03T09:48:07.000Z</time>
      </trkpt>
      <trkpt lat="44.20157" lon="0.83374">
        <ele>148.3</ele>
        <time>2025-05-03T09:48:17.000Z</time>
      </trkpt>
      <trkpt lat="44.20147" lon="0.83375">
        <ele>149.2</ele>
        <time>2025-05-03T09:48:27.000Z</time>
      </trkpt>
      <trkpt lat="44.20139" lon="0.83382">
        <ele>150.5</ele>
        <time>2025-05-03T09:48:35.000Z</time>
      </trkpt>
      <trkpt lat="44.20135" lon="0.83392">
        <ele>150.8</ele>
        <time>2025-05-03T09:48:43.000Z</time>
      </trkpt>
      <trkpt lat="44.20133" lon="0.83404">
        <ele>150</ele>
        <time>2025-05-03T09:48:53.000Z</time>
      </trkpt>
      <trkpt lat="44.20128" lon="0.83413">
        <ele>149.6</ele>
        <time>2025-05-03T09:49:01.000Z</time>
      </trkpt>
      <trkpt lat="44.20119" lon="0.83418">
        <ele>149.6</ele>
        <time>2025-05-03T09:49:11.000Z</time>
      </trkpt>
      <trkpt lat="44.20109" lon="0.83424">
        <ele>148.8</ele>
        <time>2025-05-03T09:49:21.000Z</time>
      </trkpt>
      <trkpt lat="44.20099" lon="0.83429">
        <ele>148.6</ele>
        <time>2025-05-03T09:49:31.000Z</time>
      </trkpt>
      <trkpt lat="44.20089" lon="0.83432">
        <ele>148.9</ele>
        <time>2025-05-03T09:49:39.000Z</time>
      </trkpt>
      <trkpt lat="44.20081" lon="0.83437">
        <ele>148.9</ele>
        <time>2025-05-03T09:49:45.000Z</time>
      </trkpt>
      <trkpt lat="44.20072" lon="0.83444">
        <ele>148.9</ele>
        <time>2025-05-03T09:49:53.000Z</time>
      </trkpt>
      <trkpt lat="44.20063" lon="0.83453">
        <ele>148.2</ele>
        <time>2025-05-03T09:50:01.000Z</time>
      </trkpt>
      <trkpt lat="44.20054" lon="0.83461">
        <ele>147.7</ele>
        <time>2025-05-03T09:50:11.000Z</time>
      </trkpt>
      <trkpt lat="44.20046" lon="0.83469">
        <ele>147.4</ele>
        <time>2025-05-03T09:50:19.000Z</time>
      </trkpt>
      <trkpt lat="44.20039" lon="0.83477">
        <ele>147</ele>
        <time>2025-05-03T09:50:29.000Z</time>
      </trkpt>
      <trkpt lat="44.20032" lon="0.83485">
        <ele>146.7</ele>
        <time>2025-05-03T09:50:35.000Z</time>
      </trkpt>
      <trkpt lat="44.20025" lon="0.83492">
        <ele>146</ele>
        <time>2025-05-03T09:50:43.000Z</time>
      </trkpt>
      <trkpt lat="44.20016" lon="0.83499">
        <ele>144.7</ele>
        <time>2025-05-03T09:50:51.000Z</time>
      </trkpt>
      <trkpt lat="44.20008" lon="0.83506">
        <ele>143.6</ele>
        <time>2025-05-03T09:50:59.000Z</time>
      </trkpt>
      <trkpt lat="44.19999" lon="0.83513">
        <ele>142.5</ele>
        <time>2025-05-03T09:51:08.000Z</time>
      </trkpt>
      <trkpt lat="44.19992" lon="0.8352">
        <ele>140.1</ele>
        <time>2025-05-03T09:51:16.000Z</time>
      </trkpt>
      <trkpt lat="44.19985" lon="0.8353">
        <ele>138.2</ele>
        <time>2025-05-03T09:51:27.000Z</time>
      </trkpt>
      <trkpt lat="44.19979" lon="0.83539">
        <ele>136.6</ele>
        <time>2025-05-03T09:51:37.000Z</time>
      </trkpt>
      <trkpt lat="44.19973" lon="0.8355">
        <ele>135.3</ele>
        <time>2025-05-03T09:51:49.000Z</time>
      </trkpt>
      <trkpt lat="44.19966" lon="0.8356">
        <ele>133.3</ele>
        <time>2025-05-03T09:51:59.000Z</time>
      </trkpt>
      <trkpt lat="44.19959" lon="0.8357">
        <ele>131.2</ele>
        <time>2025-05-03T09:52:07.000Z</time>
      </trkpt>
      <trkpt lat="44.19954" lon="0.8358">
        <ele>129.6</ele>
        <time>2025-05-03T09:52:16.000Z</time>
      </trkpt>
      <trkpt lat="44.19949" lon="0.83589">
        <ele>128.1</ele>
        <time>2025-05-03T09:52:26.000Z</time>
      </trkpt>
      <trkpt lat="44.19945" lon="0.836">
        <ele>127</ele>
        <time>2025-05-03T09:52:34.000Z</time>
      </trkpt>
      <trkpt lat="44.1994" lon="0.83613">
        <ele>125.8</ele>
        <time>2025-05-03T09:52:42.000Z</time>
      </trkpt>
      <trkpt lat="44.19935" lon="0.83624">
        <ele>123.5</ele>
        <time>2025-05-03T09:53:02.000Z</time>
      </trkpt>
      <trkpt lat="44.19926" lon="0.83631">
        <ele>120.5</ele>
        <time>2025-05-03T09:53:12.000Z</time>
      </trkpt>
      <trkpt lat="44.19916" lon="0.83633">
        <ele>117.2</ele>
        <time>2025-05-03T09:53:24.000Z</time>
      </trkpt>
      <trkpt lat="44.19907" lon="0.83638">
        <ele>114.3</ele>
        <time>2025-05-03T09:53:34.000Z</time>
      </trkpt>
      <trkpt lat="44.19898" lon="0.83641">
        <ele>111.3</ele>
        <time>2025-05-03T09:53:44.000Z</time>
      </trkpt>
      <trkpt lat="44.19888" lon="0.83641">
        <ele>108.5</ele>
        <time>2025-05-03T09:53:56.000Z</time>
      </trkpt>
      <trkpt lat="44.19878" lon="0.83643">
        <ele>106.2</ele>
        <time>2025-05-03T09:54:06.000Z</time>
      </trkpt>
      <trkpt lat="44.1987" lon="0.83648">
        <ele>104.1</ele>
        <time>2025-05-03T09:54:16.000Z</time>
      </trkpt>
      <trkpt lat="44.19861" lon="0.83652">
        <ele>102</ele>
        <time>2025-05-03T09:55:02.000Z</time>
      </trkpt>
      <trkpt lat="44.19853" lon="0.83657">
        <ele>100.2</ele>
        <time>2025-05-03T09:55:10.000Z</time>
      </trkpt>
      <trkpt lat="44.19844" lon="0.83663">
        <ele>98.2</ele>
        <time>2025-05-03T09:55:20.000Z</time>
      </trkpt>
      <trkpt lat="44.19835" lon="0.83667">
        <ele>96.3</ele>
        <time>2025-05-03T09:55:29.000Z</time>
      </trkpt>
      <trkpt lat="44.19826" lon="0.83669">
        <ele>94.7</ele>
        <time>2025-05-03T09:55:39.000Z</time>
      </trkpt>
      <trkpt lat="44.19817" lon="0.83671">
        <ele>93</ele>
        <time>2025-05-03T09:55:51.000Z</time>
      </trkpt>
      <trkpt lat="44.19808" lon="0.83674">
        <ele>91.2</ele>
        <time>2025-05-03T09:56:02.000Z</time>
      </trkpt>
      <trkpt lat="44.19799" lon="0.83676">
        <ele>88.9</ele>
        <time>2025-05-03T09:56:11.000Z</time>
      </trkpt>
      <trkpt lat="44.1979" lon="0.83678">
        <ele>86.3</ele>
        <time>2025-05-03T09:56:21.000Z</time>
      </trkpt>
      <trkpt lat="44.19784" lon="0.83686">
        <ele>84.6</ele>
        <time>2025-05-03T09:56:31.000Z</time>
      </trkpt>
      <trkpt lat="44.19782" lon="0.83698">
        <ele>84.2</ele>
        <time>2025-05-03T09:56:40.000Z</time>
      </trkpt>
      <trkpt lat="44.19782" lon="0.83711">
        <ele>84.5</ele>
        <time>2025-05-03T09:56:52.000Z</time>
      </trkpt>
      <trkpt lat="44.1978" lon="0.83724">
        <ele>84.4</ele>
        <time>2025-05-03T09:57:02.000Z</time>
      </trkpt>
      <trkpt lat="44.19776" lon="0.83737">
        <ele>84</ele>
        <time>2025-05-03T09:57:12.000Z</time>
      </trkpt>
      <trkpt lat="44.19772" lon="0.8375">
        <ele>83.6</ele>
        <time>2025-05-03T09:57:20.000Z</time>
      </trkpt>
      <trkpt lat="44.19772" lon="0.83764">
        <ele>83.1</ele>
        <time>2025-05-03T09:57:28.000Z</time>
      </trkpt>
      <trkpt lat="44.19772" lon="0.83777">
        <ele>82.8</ele>
        <time>2025-05-03T09:57:36.000Z</time>
      </trkpt>
      <trkpt lat="44.19772" lon="0.8379">
        <ele>82.7</ele>
        <time>2025-05-03T09:57:44.000Z</time>
      </trkpt>
      <trkpt lat="44.19771" lon="0.83803">
        <ele>82.6</ele>
        <time>2025-05-03T09:57:52.000Z</time>
      </trkpt>
      <trkpt lat="44.19771" lon="0.83816">
        <ele>82.9</ele>
        <time>2025-05-03T09:58:02.000Z</time>
      </trkpt>
      <trkpt lat="44.19774" lon="0.83829">
        <ele>83.8</ele>
        <time>2025-05-03T09:58:10.000Z</time>
      </trkpt>
      <trkpt lat="44.19777" lon="0.8384">
        <ele>84.9</ele>
        <time>2025-05-03T09:58:21.000Z</time>
      </trkpt>
      <trkpt lat="44.19781" lon="0.83851">
        <ele>85.5</ele>
        <time>2025-05-03T09:59:31.000Z</time>
      </trkpt>
      <trkpt lat="44.19779" lon="0.83863">
        <ele>85.1</ele>
        <time>2025-05-03T10:00:25.000Z</time>
      </trkpt>
      <trkpt lat="44.19777" lon="0.83877">
        <ele>84.7</ele>
        <time>2025-05-03T10:00:35.000Z</time>
      </trkpt>
      <trkpt lat="44.19775" lon="0.83889">
        <ele>84.3</ele>
        <time>2025-05-03T10:00:43.000Z</time>
      </trkpt>
      <trkpt lat="44.19773" lon="0.83902">
        <ele>84.5</ele>
        <time>2025-05-03T10:00:51.000Z</time>
      </trkpt>
      <trkpt lat="44.19772" lon="0.83916">
        <ele>84.8</ele>
        <time>2025-05-03T10:00:59.000Z</time>
      </trkpt>
      <trkpt lat="44.19772" lon="0.83929">
        <ele>85.6</ele>
        <time>2025-05-03T10:01:06.000Z</time>
      </trkpt>
      <trkpt lat="44.19772" lon="0.83942">
        <ele>86.5</ele>
        <time>2025-05-03T10:01:15.000Z</time>
      </trkpt>
      <trkpt lat="44.19772" lon="0.83955">
        <ele>86.7</ele>
        <time>2025-05-03T10:01:23.000Z</time>
      </trkpt>
      <trkpt lat="44.19771" lon="0.83968">
        <ele>86.6</ele>
        <time>2025-05-03T10:01:31.000Z</time>
      </trkpt>
      <trkpt lat="44.1977" lon="0.8398">
        <ele>85.8</ele>
        <time>2025-05-03T10:01:38.000Z</time>
      </trkpt>
      <trkpt lat="44.19769" lon="0.83993">
        <ele>85.1</ele>
        <time>2025-05-03T10:01:47.000Z</time>
      </trkpt>
      <trkpt lat="44.19772" lon="0.84006">
        <ele>84.6</ele>
        <time>2025-05-03T10:01:55.000Z</time>
      </trkpt>
      <trkpt lat="44.19773" lon="0.84018">
        <ele>83.7</ele>
        <time>2025-05-03T10:02:00.000Z</time>
      </trkpt>
      <trkpt lat="44.19773" lon="0.8403">
        <ele>82.4</ele>
        <time>2025-05-03T10:02:07.000Z</time>
      </trkpt>
      <trkpt lat="44.19771" lon="0.84045">
        <ele>80.8</ele>
        <time>2025-05-03T10:02:15.000Z</time>
      </trkpt>
      <trkpt lat="44.1977" lon="0.84058">
        <ele>79.6</ele>
        <time>2025-05-03T10:02:21.000Z</time>
      </trkpt>
      <trkpt lat="44.19769" lon="0.84073">
        <ele>79.1</ele>
        <time>2025-05-03T10:02:28.000Z</time>
      </trkpt>
      <trkpt lat="44.19766" lon="0.84087">
        <ele>78.8</ele>
        <time>2025-05-03T10:02:37.000Z</time>
      </trkpt>
      <trkpt lat="44.1976" lon="0.84103">
        <ele>79.3</ele>
        <time>2025-05-03T10:02:47.000Z</time>
      </trkpt>
      <trkpt lat="44.19754" lon="0.84118">
        <ele>79.6</ele>
        <time>2025-05-03T10:02:56.000Z</time>
      </trkpt>
      <trkpt lat="44.19752" lon="0.84131">
        <ele>79.9</ele>
        <time>2025-05-03T10:03:04.000Z</time>
      </trkpt>
      <trkpt lat="44.19749" lon="0.84142">
        <ele>79.9</ele>
        <time>2025-05-03T10:03:12.000Z</time>
      </trkpt>
      <trkpt lat="44.19744" lon="0.84155">
        <ele>79.4</ele>
        <time>2025-05-03T10:03:19.000Z</time>
      </trkpt>
      <trkpt lat="44.19739" lon="0.84169">
        <ele>79.2</ele>
        <time>2025-05-03T10:03:28.000Z</time>
      </trkpt>
      <trkpt lat="44.19739" lon="0.84183">
        <ele>79.2</ele>
        <time>2025-05-03T10:03:37.000Z</time>
      </trkpt>
      <trkpt lat="44.19738" lon="0.84196">
        <ele>79.1</ele>
        <time>2025-05-03T10:04:41.000Z</time>
      </trkpt>
      <trkpt lat="44.19734" lon="0.84208">
        <ele>78.6</ele>
        <time>2025-05-03T10:04:49.000Z</time>
      </trkpt>
      <trkpt lat="44.19729" lon="0.8422">
        <ele>78.3</ele>
        <time>2025-05-03T10:04:57.000Z</time>
      </trkpt>
      <trkpt lat="44.19729" lon="0.84251">
        <ele>77.5</ele>
        <time>2025-05-03T10:05:05.000Z</time>
      </trkpt>
      <trkpt lat="44.19721" lon="0.84267">
        <ele>76.3</ele>
        <time>2025-05-03T10:05:12.000Z</time>
      </trkpt>
      <trkpt lat="44.1972" lon="0.84281">
        <ele>75.9</ele>
        <time>2025-05-03T10:05:22.000Z</time>
      </trkpt>
      <trkpt lat="44.1972" lon="0.84288">
        <ele>75.9</ele>
        <time>2025-05-03T10:06:08.000Z</time>
      </trkpt>
      <trkpt lat="44.19717" lon="0.843">
        <ele>75.7</ele>
        <time>2025-05-03T10:13:19.000Z</time>
      </trkpt>
    </trkseg>
  </trk>
</gpx>